<?xml version="1.0" encoding="UTF-8" standalone="no" ?>
<gpx xmlns="http://www.topografix.com/GPX/1/1" xmlns:xsi="http://www.w3.org/2001/XMLSchema-instance" xsi:schemaLocation="http://www.topografix.com/GPX/1/1 http://www.topografix.com/GPX/1/1/gpx.xsd" version="1.1" creator="VisuGPX - https://www.visugpx.com">
  <metadata>
    <name>Chamelet L\\\'Antoine</name>
    <desc><![CDATA[Le Bourg -> Le Bois Clayet -> Saillant -> L\\\'Antoine -> La Vieille Route -> Le Bourg]]></desc>
  </metadata>
  <trk>
    <name><![CDATA[Mountain Biking 9/16/14 11:51 am]]></name>
    <trkseg>
      <trkpt lat="45.98233" lon="4.50974">
        <ele>323.7</ele>
        <time>2014-09-16T11:51:18Z</time>
      </trkpt>
      <trkpt lat="45.98225" lon="4.50953">
        <ele>322.9</ele>
        <time>2014-09-16T11:51:26Z</time>
      </trkpt>
      <trkpt lat="45.98233" lon="4.5095">
        <ele>322.2</ele>
        <time>2014-09-16T11:51:33Z</time>
      </trkpt>
      <trkpt lat="45.98223" lon="4.50948">
        <ele>321.8</ele>
        <time>2014-09-16T11:51:49Z</time>
      </trkpt>
      <trkpt lat="45.98215" lon="4.50952">
        <ele>321.4</ele>
        <time>2014-09-16T11:51:53Z</time>
      </trkpt>
      <trkpt lat="45.98206" lon="4.50957">
        <ele>321.1</ele>
        <time>2014-09-16T11:51:57Z</time>
      </trkpt>
      <trkpt lat="45.98198" lon="4.50955">
        <ele>319.1</ele>
        <time>2014-09-16T11:51:59Z</time>
      </trkpt>
      <trkpt lat="45.98188" lon="4.50953">
        <ele>318.8</ele>
        <time>2014-09-16T11:52:01Z</time>
      </trkpt>
      <trkpt lat="45.9818" lon="4.50953">
        <ele>318.5</ele>
        <time>2014-09-16T11:52:11Z</time>
      </trkpt>
      <trkpt lat="45.98174" lon="4.50943">
        <ele>318.3</ele>
        <time>2014-09-16T11:52:14Z</time>
      </trkpt>
      <trkpt lat="45.98165" lon="4.50932">
        <ele>317.5</ele>
        <time>2014-09-16T11:52:16Z</time>
      </trkpt>
      <trkpt lat="45.98155" lon="4.50921">
        <ele>316.9</ele>
        <time>2014-09-16T11:52:18Z</time>
      </trkpt>
      <trkpt lat="45.98145" lon="4.50906">
        <ele>316.4</ele>
        <time>2014-09-16T11:52:20Z</time>
      </trkpt>
      <trkpt lat="45.98133" lon="4.50889">
        <ele>315.8</ele>
        <time>2014-09-16T11:52:22Z</time>
      </trkpt>
      <trkpt lat="45.98127" lon="4.50879">
        <ele>315.3</ele>
        <time>2014-09-16T11:52:23Z</time>
      </trkpt>
      <trkpt lat="45.9812" lon="4.5087">
        <ele>314.7</ele>
        <time>2014-09-16T11:52:24Z</time>
      </trkpt>
      <trkpt lat="45.98113" lon="4.5086">
        <ele>314.2</ele>
        <time>2014-09-16T11:52:25Z</time>
      </trkpt>
      <trkpt lat="45.98106" lon="4.50852">
        <ele>313.6</ele>
        <time>2014-09-16T11:52:26Z</time>
      </trkpt>
      <trkpt lat="45.98099" lon="4.50846">
        <ele>313.1</ele>
        <time>2014-09-16T11:52:27Z</time>
      </trkpt>
      <trkpt lat="45.98091" lon="4.50839">
        <ele>311.8</ele>
        <time>2014-09-16T11:52:28Z</time>
      </trkpt>
      <trkpt lat="45.98084" lon="4.50833">
        <ele>310.5</ele>
        <time>2014-09-16T11:52:29Z</time>
      </trkpt>
      <trkpt lat="45.9807" lon="4.50822">
        <ele>309.8</ele>
        <time>2014-09-16T11:52:31Z</time>
      </trkpt>
      <trkpt lat="45.98059" lon="4.50812">
        <ele>309.8</ele>
        <time>2014-09-16T11:52:33Z</time>
      </trkpt>
      <trkpt lat="45.98051" lon="4.508">
        <ele>309.8</ele>
        <time>2014-09-16T11:52:35Z</time>
      </trkpt>
      <trkpt lat="45.98049" lon="4.50785">
        <ele>309.8</ele>
        <time>2014-09-16T11:52:38Z</time>
      </trkpt>
      <trkpt lat="45.9806" lon="4.50786">
        <ele>309.8</ele>
        <time>2014-09-16T11:52:41Z</time>
      </trkpt>
      <trkpt lat="45.98068" lon="4.50794">
        <ele>309.8</ele>
        <time>2014-09-16T11:52:43Z</time>
      </trkpt>
      <trkpt lat="45.98078" lon="4.50801">
        <ele>309.8</ele>
        <time>2014-09-16T11:52:45Z</time>
      </trkpt>
      <trkpt lat="45.98086" lon="4.50807">
        <ele>309.2</ele>
        <time>2014-09-16T11:52:47Z</time>
      </trkpt>
      <trkpt lat="45.98096" lon="4.50813">
        <ele>308.5</ele>
        <time>2014-09-16T11:52:49Z</time>
      </trkpt>
      <trkpt lat="45.98106" lon="4.5082">
        <ele>308.6</ele>
        <time>2014-09-16T11:52:51Z</time>
      </trkpt>
      <trkpt lat="45.98115" lon="4.50828">
        <ele>308.7</ele>
        <time>2014-09-16T11:52:53Z</time>
      </trkpt>
      <trkpt lat="45.98124" lon="4.50836">
        <ele>308.8</ele>
        <time>2014-09-16T11:52:55Z</time>
      </trkpt>
      <trkpt lat="45.98133" lon="4.50843">
        <ele>308.2</ele>
        <time>2014-09-16T11:52:57Z</time>
      </trkpt>
      <trkpt lat="45.98143" lon="4.50851">
        <ele>307.5</ele>
        <time>2014-09-16T11:52:59Z</time>
      </trkpt>
      <trkpt lat="45.98153" lon="4.50859">
        <ele>306.9</ele>
        <time>2014-09-16T11:53:01Z</time>
      </trkpt>
      <trkpt lat="45.98162" lon="4.50865">
        <ele>306.3</ele>
        <time>2014-09-16T11:53:03Z</time>
      </trkpt>
      <trkpt lat="45.98171" lon="4.5087">
        <ele>305.6</ele>
        <time>2014-09-16T11:53:05Z</time>
      </trkpt>
      <trkpt lat="45.98181" lon="4.50872">
        <ele>305</ele>
        <time>2014-09-16T11:53:07Z</time>
      </trkpt>
      <trkpt lat="45.98192" lon="4.50873">
        <ele>305</ele>
        <time>2014-09-16T11:53:09Z</time>
      </trkpt>
      <trkpt lat="45.98202" lon="4.50874">
        <ele>305</ele>
        <time>2014-09-16T11:53:11Z</time>
      </trkpt>
      <trkpt lat="45.98213" lon="4.50874">
        <ele>305</ele>
        <time>2014-09-16T11:53:13Z</time>
      </trkpt>
      <trkpt lat="45.98223" lon="4.50874">
        <ele>305</ele>
        <time>2014-09-16T11:53:15Z</time>
      </trkpt>
      <trkpt lat="45.98232" lon="4.5087">
        <ele>305.2</ele>
        <time>2014-09-16T11:53:17Z</time>
      </trkpt>
      <trkpt lat="45.98236" lon="4.50859">
        <ele>305.4</ele>
        <time>2014-09-16T11:53:19Z</time>
      </trkpt>
      <trkpt lat="45.98236" lon="4.50842">
        <ele>305.5</ele>
        <time>2014-09-16T11:53:21Z</time>
      </trkpt>
      <trkpt lat="45.98237" lon="4.50826">
        <ele>305.7</ele>
        <time>2014-09-16T11:53:23Z</time>
      </trkpt>
      <trkpt lat="45.98238" lon="4.50808">
        <ele>305.9</ele>
        <time>2014-09-16T11:53:25Z</time>
      </trkpt>
      <trkpt lat="45.98239" lon="4.50792">
        <ele>306.1</ele>
        <time>2014-09-16T11:53:27Z</time>
      </trkpt>
      <trkpt lat="45.98243" lon="4.50777">
        <ele>306.3</ele>
        <time>2014-09-16T11:53:29Z</time>
      </trkpt>
      <trkpt lat="45.98247" lon="4.50764">
        <ele>307.1</ele>
        <time>2014-09-16T11:53:31Z</time>
      </trkpt>
      <trkpt lat="45.98251" lon="4.50753">
        <ele>307.9</ele>
        <time>2014-09-16T11:53:33Z</time>
      </trkpt>
      <trkpt lat="45.98256" lon="4.50742">
        <ele>308.7</ele>
        <time>2014-09-16T11:53:35Z</time>
      </trkpt>
      <trkpt lat="45.98261" lon="4.50731">
        <ele>309.5</ele>
        <time>2014-09-16T11:53:37Z</time>
      </trkpt>
      <trkpt lat="45.98265" lon="4.5072">
        <ele>310.2</ele>
        <time>2014-09-16T11:53:39Z</time>
      </trkpt>
      <trkpt lat="45.9827" lon="4.5071">
        <ele>311.7</ele>
        <time>2014-09-16T11:53:41Z</time>
      </trkpt>
      <trkpt lat="45.98274" lon="4.50699">
        <ele>313.3</ele>
        <time>2014-09-16T11:53:43Z</time>
      </trkpt>
      <trkpt lat="45.98279" lon="4.50685">
        <ele>314.9</ele>
        <time>2014-09-16T11:53:46Z</time>
      </trkpt>
      <trkpt lat="45.98283" lon="4.50674">
        <ele>316.5</ele>
        <time>2014-09-16T11:53:49Z</time>
      </trkpt>
      <trkpt lat="45.98287" lon="4.50663">
        <ele>318.2</ele>
        <time>2014-09-16T11:53:52Z</time>
      </trkpt>
      <trkpt lat="45.98293" lon="4.50651">
        <ele>319.8</ele>
        <time>2014-09-16T11:53:56Z</time>
      </trkpt>
      <trkpt lat="45.98299" lon="4.50638">
        <ele>320.8</ele>
        <time>2014-09-16T11:54:00Z</time>
      </trkpt>
      <trkpt lat="45.98304" lon="4.50624">
        <ele>321.8</ele>
        <time>2014-09-16T11:54:04Z</time>
      </trkpt>
      <trkpt lat="45.98308" lon="4.50614">
        <ele>322.8</ele>
        <time>2014-09-16T11:54:07Z</time>
      </trkpt>
      <trkpt lat="45.98313" lon="4.50605">
        <ele>323.8</ele>
        <time>2014-09-16T11:54:10Z</time>
      </trkpt>
      <trkpt lat="45.98318" lon="4.50595">
        <ele>324.5</ele>
        <time>2014-09-16T11:54:13Z</time>
      </trkpt>
      <trkpt lat="45.98325" lon="4.50584">
        <ele>324.4</ele>
        <time>2014-09-16T11:54:17Z</time>
      </trkpt>
      <trkpt lat="45.9833" lon="4.50575">
        <ele>324.2</ele>
        <time>2014-09-16T11:54:20Z</time>
      </trkpt>
      <trkpt lat="45.98335" lon="4.50566">
        <ele>323.9</ele>
        <time>2014-09-16T11:54:23Z</time>
      </trkpt>
      <trkpt lat="45.98341" lon="4.50553">
        <ele>323.6</ele>
        <time>2014-09-16T11:54:27Z</time>
      </trkpt>
      <trkpt lat="45.98347" lon="4.50541">
        <ele>323.4</ele>
        <time>2014-09-16T11:54:31Z</time>
      </trkpt>
      <trkpt lat="45.98354" lon="4.50531">
        <ele>324.5</ele>
        <time>2014-09-16T11:54:35Z</time>
      </trkpt>
      <trkpt lat="45.98361" lon="4.50521">
        <ele>325.5</ele>
        <time>2014-09-16T11:54:40Z</time>
      </trkpt>
      <trkpt lat="45.98367" lon="4.50512">
        <ele>326.9</ele>
        <time>2014-09-16T11:54:44Z</time>
      </trkpt>
      <trkpt lat="45.98372" lon="4.50503">
        <ele>328.3</ele>
        <time>2014-09-16T11:54:48Z</time>
      </trkpt>
      <trkpt lat="45.98378" lon="4.50493">
        <ele>329.6</ele>
        <time>2014-09-16T11:54:52Z</time>
      </trkpt>
      <trkpt lat="45.98382" lon="4.50482">
        <ele>331.3</ele>
        <time>2014-09-16T11:54:56Z</time>
      </trkpt>
      <trkpt lat="45.98387" lon="4.5047">
        <ele>332.9</ele>
        <time>2014-09-16T11:55:00Z</time>
      </trkpt>
      <trkpt lat="45.98391" lon="4.50459">
        <ele>334.5</ele>
        <time>2014-09-16T11:55:04Z</time>
      </trkpt>
      <trkpt lat="45.98395" lon="4.50447">
        <ele>336.2</ele>
        <time>2014-09-16T11:55:08Z</time>
      </trkpt>
      <trkpt lat="45.98398" lon="4.50436">
        <ele>338</ele>
        <time>2014-09-16T11:55:12Z</time>
      </trkpt>
      <trkpt lat="45.98402" lon="4.50425">
        <ele>339.8</ele>
        <time>2014-09-16T11:55:16Z</time>
      </trkpt>
      <trkpt lat="45.98405" lon="4.50414">
        <ele>340.3</ele>
        <time>2014-09-16T11:55:20Z</time>
      </trkpt>
      <trkpt lat="45.98408" lon="4.504">
        <ele>340.7</ele>
        <time>2014-09-16T11:55:25Z</time>
      </trkpt>
      <trkpt lat="45.9841" lon="4.50386">
        <ele>340.9</ele>
        <time>2014-09-16T11:55:30Z</time>
      </trkpt>
      <trkpt lat="45.98412" lon="4.50373">
        <ele>341.1</ele>
        <time>2014-09-16T11:55:35Z</time>
      </trkpt>
      <trkpt lat="45.98415" lon="4.5036">
        <ele>341.4</ele>
        <time>2014-09-16T11:55:40Z</time>
      </trkpt>
      <trkpt lat="45.98416" lon="4.50346">
        <ele>341.6</ele>
        <time>2014-09-16T11:55:45Z</time>
      </trkpt>
      <trkpt lat="45.98419" lon="4.50333">
        <ele>341.9</ele>
        <time>2014-09-16T11:55:50Z</time>
      </trkpt>
      <trkpt lat="45.98422" lon="4.5032">
        <ele>342.2</ele>
        <time>2014-09-16T11:55:55Z</time>
      </trkpt>
      <trkpt lat="45.98423" lon="4.50306">
        <ele>342.5</ele>
        <time>2014-09-16T11:56:00Z</time>
      </trkpt>
      <trkpt lat="45.98425" lon="4.50293">
        <ele>342.5</ele>
        <time>2014-09-16T11:56:05Z</time>
      </trkpt>
      <trkpt lat="45.98427" lon="4.5028">
        <ele>342.9</ele>
        <time>2014-09-16T11:56:10Z</time>
      </trkpt>
      <trkpt lat="45.98429" lon="4.50266">
        <ele>343.3</ele>
        <time>2014-09-16T11:56:15Z</time>
      </trkpt>
      <trkpt lat="45.98429" lon="4.50253">
        <ele>343.6</ele>
        <time>2014-09-16T11:56:20Z</time>
      </trkpt>
      <trkpt lat="45.98431" lon="4.5024">
        <ele>344</ele>
        <time>2014-09-16T11:56:25Z</time>
      </trkpt>
      <trkpt lat="45.98434" lon="4.50227">
        <ele>344.4</ele>
        <time>2014-09-16T11:56:30Z</time>
      </trkpt>
      <trkpt lat="45.98438" lon="4.50214">
        <ele>346.5</ele>
        <time>2014-09-16T11:56:35Z</time>
      </trkpt>
      <trkpt lat="45.98442" lon="4.50203">
        <ele>348.5</ele>
        <time>2014-09-16T11:56:39Z</time>
      </trkpt>
      <trkpt lat="45.98448" lon="4.50194">
        <ele>350.2</ele>
        <time>2014-09-16T11:56:43Z</time>
      </trkpt>
      <trkpt lat="45.98453" lon="4.50183">
        <ele>351.8</ele>
        <time>2014-09-16T11:56:48Z</time>
      </trkpt>
      <trkpt lat="45.98459" lon="4.50172">
        <ele>353.5</ele>
        <time>2014-09-16T11:56:53Z</time>
      </trkpt>
      <trkpt lat="45.98464" lon="4.50161">
        <ele>355.1</ele>
        <time>2014-09-16T11:56:58Z</time>
      </trkpt>
      <trkpt lat="45.98468" lon="4.50149">
        <ele>356.5</ele>
        <time>2014-09-16T11:57:03Z</time>
      </trkpt>
      <trkpt lat="45.98472" lon="4.50136">
        <ele>357.8</ele>
        <time>2014-09-16T11:57:08Z</time>
      </trkpt>
      <trkpt lat="45.98477" lon="4.50124">
        <ele>359.2</ele>
        <time>2014-09-16T11:57:13Z</time>
      </trkpt>
      <trkpt lat="45.98481" lon="4.50113">
        <ele>360.5</ele>
        <time>2014-09-16T11:57:17Z</time>
      </trkpt>
      <trkpt lat="45.98484" lon="4.50102">
        <ele>361.9</ele>
        <time>2014-09-16T11:57:21Z</time>
      </trkpt>
      <trkpt lat="45.98488" lon="4.50092">
        <ele>361.5</ele>
        <time>2014-09-16T11:57:25Z</time>
      </trkpt>
      <trkpt lat="45.98492" lon="4.50079">
        <ele>361</ele>
        <time>2014-09-16T11:57:30Z</time>
      </trkpt>
      <trkpt lat="45.98495" lon="4.50066">
        <ele>361</ele>
        <time>2014-09-16T11:57:35Z</time>
      </trkpt>
      <trkpt lat="45.98499" lon="4.50052">
        <ele>361</ele>
        <time>2014-09-16T11:57:40Z</time>
      </trkpt>
      <trkpt lat="45.98502" lon="4.50038">
        <ele>361</ele>
        <time>2014-09-16T11:57:45Z</time>
      </trkpt>
      <trkpt lat="45.98505" lon="4.50025">
        <ele>361</ele>
        <time>2014-09-16T11:57:50Z</time>
      </trkpt>
      <trkpt lat="45.98507" lon="4.50012">
        <ele>361</ele>
        <time>2014-09-16T11:57:55Z</time>
      </trkpt>
      <trkpt lat="45.9851" lon="4.5">
        <ele>361</ele>
        <time>2014-09-16T11:58:00Z</time>
      </trkpt>
      <trkpt lat="45.98512" lon="4.49987">
        <ele>361</ele>
        <time>2014-09-16T11:58:05Z</time>
      </trkpt>
      <trkpt lat="45.98516" lon="4.49975">
        <ele>361</ele>
        <time>2014-09-16T11:58:10Z</time>
      </trkpt>
      <trkpt lat="45.98519" lon="4.49962">
        <ele>361</ele>
        <time>2014-09-16T11:58:15Z</time>
      </trkpt>
      <trkpt lat="45.98523" lon="4.49949">
        <ele>361</ele>
        <time>2014-09-16T11:58:20Z</time>
      </trkpt>
      <trkpt lat="45.98526" lon="4.49937">
        <ele>361</ele>
        <time>2014-09-16T11:58:25Z</time>
      </trkpt>
      <trkpt lat="45.98529" lon="4.49924">
        <ele>361</ele>
        <time>2014-09-16T11:58:30Z</time>
      </trkpt>
      <trkpt lat="45.98531" lon="4.49911">
        <ele>361</ele>
        <time>2014-09-16T11:58:35Z</time>
      </trkpt>
      <trkpt lat="45.98534" lon="4.49922">
        <ele>361</ele>
        <time>2014-09-16T11:58:46Z</time>
      </trkpt>
      <trkpt lat="45.98533" lon="4.49935">
        <ele>361</ele>
        <time>2014-09-16T11:58:50Z</time>
      </trkpt>
      <trkpt lat="45.98533" lon="4.49948">
        <ele>361</ele>
        <time>2014-09-16T11:58:54Z</time>
      </trkpt>
      <trkpt lat="45.98535" lon="4.49961">
        <ele>361</ele>
        <time>2014-09-16T11:58:58Z</time>
      </trkpt>
      <trkpt lat="45.98536" lon="4.49973">
        <ele>361</ele>
        <time>2014-09-16T11:59:02Z</time>
      </trkpt>
      <trkpt lat="45.98536" lon="4.49986">
        <ele>361</ele>
        <time>2014-09-16T11:59:06Z</time>
      </trkpt>
      <trkpt lat="45.98536" lon="4.49998">
        <ele>361</ele>
        <time>2014-09-16T11:59:10Z</time>
      </trkpt>
      <trkpt lat="45.98536" lon="4.5001">
        <ele>361</ele>
        <time>2014-09-16T11:59:14Z</time>
      </trkpt>
      <trkpt lat="45.98536" lon="4.50024">
        <ele>361</ele>
        <time>2014-09-16T11:59:19Z</time>
      </trkpt>
      <trkpt lat="45.98536" lon="4.50039">
        <ele>361</ele>
        <time>2014-09-16T11:59:24Z</time>
      </trkpt>
      <trkpt lat="45.98536" lon="4.50056">
        <ele>361</ele>
        <time>2014-09-16T11:59:30Z</time>
      </trkpt>
      <trkpt lat="45.98536" lon="4.50068">
        <ele>361</ele>
        <time>2014-09-16T11:59:34Z</time>
      </trkpt>
      <trkpt lat="45.98535" lon="4.5008">
        <ele>361.5</ele>
        <time>2014-09-16T11:59:38Z</time>
      </trkpt>
      <trkpt lat="45.98535" lon="4.50094">
        <ele>361.9</ele>
        <time>2014-09-16T11:59:43Z</time>
      </trkpt>
      <trkpt lat="45.98534" lon="4.50106">
        <ele>362.4</ele>
        <time>2014-09-16T11:59:47Z</time>
      </trkpt>
      <trkpt lat="45.98534" lon="4.50121">
        <ele>363.7</ele>
        <time>2014-09-16T11:59:52Z</time>
      </trkpt>
      <trkpt lat="45.98534" lon="4.50132">
        <ele>365.1</ele>
        <time>2014-09-16T11:59:56Z</time>
      </trkpt>
      <trkpt lat="45.98535" lon="4.50144">
        <ele>366.5</ele>
        <time>2014-09-16T12:00:00Z</time>
      </trkpt>
      <trkpt lat="45.98537" lon="4.50156">
        <ele>367.8</ele>
        <time>2014-09-16T12:00:04Z</time>
      </trkpt>
      <trkpt lat="45.9854" lon="4.50168">
        <ele>369.3</ele>
        <time>2014-09-16T12:00:08Z</time>
      </trkpt>
      <trkpt lat="45.98548" lon="4.50172">
        <ele>370.7</ele>
        <time>2014-09-16T12:00:12Z</time>
      </trkpt>
      <trkpt lat="45.98556" lon="4.50161">
        <ele>372.2</ele>
        <time>2014-09-16T12:00:16Z</time>
      </trkpt>
      <trkpt lat="45.98559" lon="4.5015">
        <ele>373.6</ele>
        <time>2014-09-16T12:00:19Z</time>
      </trkpt>
      <trkpt lat="45.98562" lon="4.50139">
        <ele>374.6</ele>
        <time>2014-09-16T12:00:22Z</time>
      </trkpt>
      <trkpt lat="45.98565" lon="4.50127">
        <ele>375.6</ele>
        <time>2014-09-16T12:00:25Z</time>
      </trkpt>
      <trkpt lat="45.98568" lon="4.50115">
        <ele>376.6</ele>
        <time>2014-09-16T12:00:28Z</time>
      </trkpt>
      <trkpt lat="45.98571" lon="4.50103">
        <ele>376.8</ele>
        <time>2014-09-16T12:00:31Z</time>
      </trkpt>
      <trkpt lat="45.98573" lon="4.50091">
        <ele>377</ele>
        <time>2014-09-16T12:00:34Z</time>
      </trkpt>
      <trkpt lat="45.98576" lon="4.50078">
        <ele>377.2</ele>
        <time>2014-09-16T12:00:37Z</time>
      </trkpt>
      <trkpt lat="45.98578" lon="4.50066">
        <ele>377.4</ele>
        <time>2014-09-16T12:00:40Z</time>
      </trkpt>
      <trkpt lat="45.9858" lon="4.50054">
        <ele>377.5</ele>
        <time>2014-09-16T12:00:43Z</time>
      </trkpt>
      <trkpt lat="45.98582" lon="4.50042">
        <ele>377.5</ele>
        <time>2014-09-16T12:00:46Z</time>
      </trkpt>
      <trkpt lat="45.98585" lon="4.5003">
        <ele>377.6</ele>
        <time>2014-09-16T12:00:49Z</time>
      </trkpt>
      <trkpt lat="45.98588" lon="4.50018">
        <ele>378</ele>
        <time>2014-09-16T12:00:52Z</time>
      </trkpt>
      <trkpt lat="45.98591" lon="4.50006">
        <ele>378.4</ele>
        <time>2014-09-16T12:00:55Z</time>
      </trkpt>
      <trkpt lat="45.98593" lon="4.49994">
        <ele>378.7</ele>
        <time>2014-09-16T12:00:58Z</time>
      </trkpt>
      <trkpt lat="45.98596" lon="4.49983">
        <ele>379.1</ele>
        <time>2014-09-16T12:01:01Z</time>
      </trkpt>
      <trkpt lat="45.98599" lon="4.49968">
        <ele>379.4</ele>
        <time>2014-09-16T12:01:05Z</time>
      </trkpt>
      <trkpt lat="45.98603" lon="4.49954">
        <ele>380</ele>
        <time>2014-09-16T12:01:09Z</time>
      </trkpt>
      <trkpt lat="45.98607" lon="4.49942">
        <ele>380.6</ele>
        <time>2014-09-16T12:01:13Z</time>
      </trkpt>
      <trkpt lat="45.98612" lon="4.49932">
        <ele>382.6</ele>
        <time>2014-09-16T12:01:18Z</time>
      </trkpt>
      <trkpt lat="45.98619" lon="4.49921">
        <ele>384.6</ele>
        <time>2014-09-16T12:01:23Z</time>
      </trkpt>
      <trkpt lat="45.98624" lon="4.49912">
        <ele>386.6</ele>
        <time>2014-09-16T12:01:27Z</time>
      </trkpt>
      <trkpt lat="45.98629" lon="4.49902">
        <ele>388.6</ele>
        <time>2014-09-16T12:01:31Z</time>
      </trkpt>
      <trkpt lat="45.98632" lon="4.49888">
        <ele>390.4</ele>
        <time>2014-09-16T12:01:36Z</time>
      </trkpt>
      <trkpt lat="45.98636" lon="4.49875">
        <ele>392.1</ele>
        <time>2014-09-16T12:01:41Z</time>
      </trkpt>
      <trkpt lat="45.98641" lon="4.49864">
        <ele>393.8</ele>
        <time>2014-09-16T12:01:46Z</time>
      </trkpt>
      <trkpt lat="45.98648" lon="4.49855">
        <ele>395.5</ele>
        <time>2014-09-16T12:01:51Z</time>
      </trkpt>
      <trkpt lat="45.98657" lon="4.49851">
        <ele>397.3</ele>
        <time>2014-09-16T12:01:56Z</time>
      </trkpt>
      <trkpt lat="45.98667" lon="4.49847">
        <ele>398.6</ele>
        <time>2014-09-16T12:02:01Z</time>
      </trkpt>
      <trkpt lat="45.98674" lon="4.49841">
        <ele>400.6</ele>
        <time>2014-09-16T12:02:05Z</time>
      </trkpt>
      <trkpt lat="45.98681" lon="4.49834">
        <ele>401.3</ele>
        <time>2014-09-16T12:02:09Z</time>
      </trkpt>
      <trkpt lat="45.98688" lon="4.49826">
        <ele>401.9</ele>
        <time>2014-09-16T12:02:13Z</time>
      </trkpt>
      <trkpt lat="45.98694" lon="4.49817">
        <ele>400.5</ele>
        <time>2014-09-16T12:02:17Z</time>
      </trkpt>
      <trkpt lat="45.98699" lon="4.49805">
        <ele>399</ele>
        <time>2014-09-16T12:02:21Z</time>
      </trkpt>
      <trkpt lat="45.98704" lon="4.49791">
        <ele>397.5</ele>
        <time>2014-09-16T12:02:25Z</time>
      </trkpt>
      <trkpt lat="45.98707" lon="4.49777">
        <ele>395.7</ele>
        <time>2014-09-16T12:02:29Z</time>
      </trkpt>
      <trkpt lat="45.98709" lon="4.49765">
        <ele>393.9</ele>
        <time>2014-09-16T12:02:32Z</time>
      </trkpt>
      <trkpt lat="45.9871" lon="4.49753">
        <ele>392.1</ele>
        <time>2014-09-16T12:02:35Z</time>
      </trkpt>
      <trkpt lat="45.98712" lon="4.49739">
        <ele>390.3</ele>
        <time>2014-09-16T12:02:38Z</time>
      </trkpt>
      <trkpt lat="45.98714" lon="4.49722">
        <ele>388.5</ele>
        <time>2014-09-16T12:02:41Z</time>
      </trkpt>
      <trkpt lat="45.98714" lon="4.49709">
        <ele>386</ele>
        <time>2014-09-16T12:02:43Z</time>
      </trkpt>
      <trkpt lat="45.98715" lon="4.49694">
        <ele>383.9</ele>
        <time>2014-09-16T12:02:45Z</time>
      </trkpt>
      <trkpt lat="45.98716" lon="4.4968">
        <ele>381.8</ele>
        <time>2014-09-16T12:02:47Z</time>
      </trkpt>
      <trkpt lat="45.98715" lon="4.49666">
        <ele>381.8</ele>
        <time>2014-09-16T12:02:49Z</time>
      </trkpt>
      <trkpt lat="45.98716" lon="4.49652">
        <ele>381.8</ele>
        <time>2014-09-16T12:02:51Z</time>
      </trkpt>
      <trkpt lat="45.98717" lon="4.49639">
        <ele>381.8</ele>
        <time>2014-09-16T12:02:53Z</time>
      </trkpt>
      <trkpt lat="45.98715" lon="4.49625">
        <ele>385.6</ele>
        <time>2014-09-16T12:02:55Z</time>
      </trkpt>
      <trkpt lat="45.98714" lon="4.4961">
        <ele>390.3</ele>
        <time>2014-09-16T12:02:57Z</time>
      </trkpt>
      <trkpt lat="45.98714" lon="4.49594">
        <ele>394.9</ele>
        <time>2014-09-16T12:02:59Z</time>
      </trkpt>
      <trkpt lat="45.98711" lon="4.4958">
        <ele>399.5</ele>
        <time>2014-09-16T12:03:01Z</time>
      </trkpt>
      <trkpt lat="45.9871" lon="4.49566">
        <ele>400.2</ele>
        <time>2014-09-16T12:03:03Z</time>
      </trkpt>
      <trkpt lat="45.98709" lon="4.49552">
        <ele>400.8</ele>
        <time>2014-09-16T12:03:05Z</time>
      </trkpt>
      <trkpt lat="45.98709" lon="4.49538">
        <ele>401.1</ele>
        <time>2014-09-16T12:03:07Z</time>
      </trkpt>
      <trkpt lat="45.98709" lon="4.49526">
        <ele>402.7</ele>
        <time>2014-09-16T12:03:09Z</time>
      </trkpt>
      <trkpt lat="45.98709" lon="4.49513">
        <ele>404.4</ele>
        <time>2014-09-16T12:03:11Z</time>
      </trkpt>
      <trkpt lat="45.9871" lon="4.495">
        <ele>406</ele>
        <time>2014-09-16T12:03:13Z</time>
      </trkpt>
      <trkpt lat="45.98712" lon="4.49489">
        <ele>407.6</ele>
        <time>2014-09-16T12:03:15Z</time>
      </trkpt>
      <trkpt lat="45.98714" lon="4.49473">
        <ele>405.8</ele>
        <time>2014-09-16T12:03:18Z</time>
      </trkpt>
      <trkpt lat="45.98718" lon="4.49458">
        <ele>403.2</ele>
        <time>2014-09-16T12:03:21Z</time>
      </trkpt>
      <trkpt lat="45.98721" lon="4.49444">
        <ele>401.9</ele>
        <time>2014-09-16T12:03:24Z</time>
      </trkpt>
      <trkpt lat="45.98725" lon="4.49431">
        <ele>400.6</ele>
        <time>2014-09-16T12:03:27Z</time>
      </trkpt>
      <trkpt lat="45.9873" lon="4.49418">
        <ele>403.4</ele>
        <time>2014-09-16T12:03:30Z</time>
      </trkpt>
      <trkpt lat="45.98734" lon="4.49405">
        <ele>406.1</ele>
        <time>2014-09-16T12:03:33Z</time>
      </trkpt>
      <trkpt lat="45.98737" lon="4.49394">
        <ele>408.8</ele>
        <time>2014-09-16T12:03:36Z</time>
      </trkpt>
      <trkpt lat="45.98741" lon="4.49382">
        <ele>410.2</ele>
        <time>2014-09-16T12:03:39Z</time>
      </trkpt>
      <trkpt lat="45.98744" lon="4.4937">
        <ele>411.5</ele>
        <time>2014-09-16T12:03:42Z</time>
      </trkpt>
      <trkpt lat="45.98748" lon="4.49358">
        <ele>413.5</ele>
        <time>2014-09-16T12:03:45Z</time>
      </trkpt>
      <trkpt lat="45.98751" lon="4.49346">
        <ele>415.4</ele>
        <time>2014-09-16T12:03:48Z</time>
      </trkpt>
      <trkpt lat="45.98754" lon="4.49335">
        <ele>417.3</ele>
        <time>2014-09-16T12:03:51Z</time>
      </trkpt>
      <trkpt lat="45.98758" lon="4.49325">
        <ele>419.2</ele>
        <time>2014-09-16T12:03:54Z</time>
      </trkpt>
      <trkpt lat="45.98762" lon="4.49313">
        <ele>419.7</ele>
        <time>2014-09-16T12:03:57Z</time>
      </trkpt>
      <trkpt lat="45.98765" lon="4.49301">
        <ele>420.3</ele>
        <time>2014-09-16T12:04:00Z</time>
      </trkpt>
      <trkpt lat="45.98769" lon="4.49289">
        <ele>420.8</ele>
        <time>2014-09-16T12:04:03Z</time>
      </trkpt>
      <trkpt lat="45.98772" lon="4.49277">
        <ele>421.6</ele>
        <time>2014-09-16T12:04:06Z</time>
      </trkpt>
      <trkpt lat="45.98774" lon="4.49265">
        <ele>422.5</ele>
        <time>2014-09-16T12:04:09Z</time>
      </trkpt>
      <trkpt lat="45.98775" lon="4.49253">
        <ele>423.3</ele>
        <time>2014-09-16T12:04:12Z</time>
      </trkpt>
      <trkpt lat="45.98777" lon="4.49239">
        <ele>424.1</ele>
        <time>2014-09-16T12:04:15Z</time>
      </trkpt>
      <trkpt lat="45.98778" lon="4.49226">
        <ele>424.4</ele>
        <time>2014-09-16T12:04:18Z</time>
      </trkpt>
      <trkpt lat="45.9878" lon="4.49213">
        <ele>425.2</ele>
        <time>2014-09-16T12:04:21Z</time>
      </trkpt>
      <trkpt lat="45.98782" lon="4.49201">
        <ele>426</ele>
        <time>2014-09-16T12:04:24Z</time>
      </trkpt>
      <trkpt lat="45.98784" lon="4.49173">
        <ele>426.8</ele>
        <time>2014-09-16T12:04:31Z</time>
      </trkpt>
      <trkpt lat="45.98785" lon="4.49162">
        <ele>427.6</ele>
        <time>2014-09-16T12:04:33Z</time>
      </trkpt>
      <trkpt lat="45.98787" lon="4.49148">
        <ele>428.5</ele>
        <time>2014-09-16T12:04:36Z</time>
      </trkpt>
      <trkpt lat="45.98788" lon="4.49134">
        <ele>429.3</ele>
        <time>2014-09-16T12:04:39Z</time>
      </trkpt>
      <trkpt lat="45.98788" lon="4.49121">
        <ele>429.8</ele>
        <time>2014-09-16T12:04:42Z</time>
      </trkpt>
      <trkpt lat="45.98789" lon="4.49107">
        <ele>430.4</ele>
        <time>2014-09-16T12:04:45Z</time>
      </trkpt>
      <trkpt lat="45.98789" lon="4.49093">
        <ele>431.3</ele>
        <time>2014-09-16T12:04:48Z</time>
      </trkpt>
      <trkpt lat="45.98789" lon="4.49081">
        <ele>432.2</ele>
        <time>2014-09-16T12:04:51Z</time>
      </trkpt>
      <trkpt lat="45.98788" lon="4.49069">
        <ele>433.1</ele>
        <time>2014-09-16T12:04:54Z</time>
      </trkpt>
      <trkpt lat="45.98789" lon="4.49056">
        <ele>433.5</ele>
        <time>2014-09-16T12:04:57Z</time>
      </trkpt>
      <trkpt lat="45.98789" lon="4.49044">
        <ele>433.8</ele>
        <time>2014-09-16T12:05:00Z</time>
      </trkpt>
      <trkpt lat="45.98788" lon="4.49032">
        <ele>434.2</ele>
        <time>2014-09-16T12:05:03Z</time>
      </trkpt>
      <trkpt lat="45.98787" lon="4.49017">
        <ele>434.6</ele>
        <time>2014-09-16T12:05:07Z</time>
      </trkpt>
      <trkpt lat="45.98785" lon="4.49002">
        <ele>435.1</ele>
        <time>2014-09-16T12:05:11Z</time>
      </trkpt>
      <trkpt lat="45.98783" lon="4.4899">
        <ele>435.5</ele>
        <time>2014-09-16T12:05:14Z</time>
      </trkpt>
      <trkpt lat="45.98781" lon="4.48977">
        <ele>436</ele>
        <time>2014-09-16T12:05:17Z</time>
      </trkpt>
      <trkpt lat="45.98779" lon="4.48963">
        <ele>436.5</ele>
        <time>2014-09-16T12:05:20Z</time>
      </trkpt>
      <trkpt lat="45.98778" lon="4.48949">
        <ele>436.5</ele>
        <time>2014-09-16T12:05:23Z</time>
      </trkpt>
      <trkpt lat="45.98777" lon="4.48936">
        <ele>436.4</ele>
        <time>2014-09-16T12:05:26Z</time>
      </trkpt>
      <trkpt lat="45.98776" lon="4.48923">
        <ele>436.2</ele>
        <time>2014-09-16T12:05:29Z</time>
      </trkpt>
      <trkpt lat="45.98775" lon="4.4891">
        <ele>436</ele>
        <time>2014-09-16T12:05:32Z</time>
      </trkpt>
      <trkpt lat="45.98773" lon="4.48898">
        <ele>435.8</ele>
        <time>2014-09-16T12:05:35Z</time>
      </trkpt>
      <trkpt lat="45.9877" lon="4.48885">
        <ele>435.6</ele>
        <time>2014-09-16T12:05:38Z</time>
      </trkpt>
      <trkpt lat="45.98767" lon="4.48872">
        <ele>435.4</ele>
        <time>2014-09-16T12:05:41Z</time>
      </trkpt>
      <trkpt lat="45.98764" lon="4.4886">
        <ele>435.1</ele>
        <time>2014-09-16T12:05:44Z</time>
      </trkpt>
      <trkpt lat="45.9876" lon="4.48847">
        <ele>435.5</ele>
        <time>2014-09-16T12:05:47Z</time>
      </trkpt>
      <trkpt lat="45.98757" lon="4.48835">
        <ele>435.8</ele>
        <time>2014-09-16T12:05:50Z</time>
      </trkpt>
      <trkpt lat="45.98755" lon="4.48823">
        <ele>436.2</ele>
        <time>2014-09-16T12:05:53Z</time>
      </trkpt>
      <trkpt lat="45.98753" lon="4.4881">
        <ele>436.5</ele>
        <time>2014-09-16T12:05:56Z</time>
      </trkpt>
      <trkpt lat="45.98753" lon="4.48797">
        <ele>437.2</ele>
        <time>2014-09-16T12:05:59Z</time>
      </trkpt>
      <trkpt lat="45.98758" lon="4.48787">
        <ele>437.8</ele>
        <time>2014-09-16T12:06:02Z</time>
      </trkpt>
      <trkpt lat="45.98767" lon="4.48781">
        <ele>435.7</ele>
        <time>2014-09-16T12:06:06Z</time>
      </trkpt>
      <trkpt lat="45.98775" lon="4.48775">
        <ele>433.6</ele>
        <time>2014-09-16T12:06:10Z</time>
      </trkpt>
      <trkpt lat="45.98781" lon="4.48766">
        <ele>432.7</ele>
        <time>2014-09-16T12:06:14Z</time>
      </trkpt>
      <trkpt lat="45.98785" lon="4.48756">
        <ele>431.8</ele>
        <time>2014-09-16T12:06:19Z</time>
      </trkpt>
      <trkpt lat="45.98791" lon="4.48745">
        <ele>430.9</ele>
        <time>2014-09-16T12:06:24Z</time>
      </trkpt>
      <trkpt lat="45.98797" lon="4.48737">
        <ele>429.4</ele>
        <time>2014-09-16T12:06:28Z</time>
      </trkpt>
      <trkpt lat="45.98803" lon="4.48726">
        <ele>427.8</ele>
        <time>2014-09-16T12:06:31Z</time>
      </trkpt>
      <trkpt lat="45.98809" lon="4.48711">
        <ele>426.3</ele>
        <time>2014-09-16T12:06:34Z</time>
      </trkpt>
      <trkpt lat="45.98814" lon="4.48695">
        <ele>425.5</ele>
        <time>2014-09-16T12:06:37Z</time>
      </trkpt>
      <trkpt lat="45.98819" lon="4.4868">
        <ele>424.8</ele>
        <time>2014-09-16T12:06:40Z</time>
      </trkpt>
      <trkpt lat="45.98823" lon="4.48665">
        <ele>424.1</ele>
        <time>2014-09-16T12:06:43Z</time>
      </trkpt>
      <trkpt lat="45.98827" lon="4.48652">
        <ele>426.1</ele>
        <time>2014-09-16T12:06:46Z</time>
      </trkpt>
      <trkpt lat="45.98829" lon="4.48638">
        <ele>428.1</ele>
        <time>2014-09-16T12:06:49Z</time>
      </trkpt>
      <trkpt lat="45.98832" lon="4.48621">
        <ele>428.9</ele>
        <time>2014-09-16T12:06:51Z</time>
      </trkpt>
      <trkpt lat="45.98835" lon="4.48609">
        <ele>430.5</ele>
        <time>2014-09-16T12:06:53Z</time>
      </trkpt>
      <trkpt lat="45.98839" lon="4.48596">
        <ele>432.2</ele>
        <time>2014-09-16T12:06:55Z</time>
      </trkpt>
      <trkpt lat="45.98842" lon="4.48583">
        <ele>433.8</ele>
        <time>2014-09-16T12:06:57Z</time>
      </trkpt>
      <trkpt lat="45.98844" lon="4.48569">
        <ele>435.5</ele>
        <time>2014-09-16T12:06:59Z</time>
      </trkpt>
      <trkpt lat="45.98846" lon="4.48555">
        <ele>437.1</ele>
        <time>2014-09-16T12:07:01Z</time>
      </trkpt>
      <trkpt lat="45.98848" lon="4.48542">
        <ele>438.3</ele>
        <time>2014-09-16T12:07:03Z</time>
      </trkpt>
      <trkpt lat="45.98852" lon="4.48524">
        <ele>439.5</ele>
        <time>2014-09-16T12:07:05Z</time>
      </trkpt>
      <trkpt lat="45.98853" lon="4.48511">
        <ele>440.6</ele>
        <time>2014-09-16T12:07:07Z</time>
      </trkpt>
      <trkpt lat="45.98856" lon="4.48497">
        <ele>441.8</ele>
        <time>2014-09-16T12:07:09Z</time>
      </trkpt>
      <trkpt lat="45.98857" lon="4.48482">
        <ele>443</ele>
        <time>2014-09-16T12:07:11Z</time>
      </trkpt>
      <trkpt lat="45.98858" lon="4.48466">
        <ele>444.2</ele>
        <time>2014-09-16T12:07:13Z</time>
      </trkpt>
      <trkpt lat="45.98857" lon="4.48453">
        <ele>444.5</ele>
        <time>2014-09-16T12:07:15Z</time>
      </trkpt>
      <trkpt lat="45.98857" lon="4.48439">
        <ele>445.1</ele>
        <time>2014-09-16T12:07:17Z</time>
      </trkpt>
      <trkpt lat="45.98859" lon="4.48426">
        <ele>445.6</ele>
        <time>2014-09-16T12:07:19Z</time>
      </trkpt>
      <trkpt lat="45.98859" lon="4.48414">
        <ele>446.2</ele>
        <time>2014-09-16T12:07:21Z</time>
      </trkpt>
      <trkpt lat="45.9886" lon="4.484">
        <ele>446.7</ele>
        <time>2014-09-16T12:07:23Z</time>
      </trkpt>
      <trkpt lat="45.98859" lon="4.48388">
        <ele>446.9</ele>
        <time>2014-09-16T12:07:25Z</time>
      </trkpt>
      <trkpt lat="45.98857" lon="4.48375">
        <ele>447.1</ele>
        <time>2014-09-16T12:07:27Z</time>
      </trkpt>
      <trkpt lat="45.98852" lon="4.48364">
        <ele>447.3</ele>
        <time>2014-09-16T12:07:29Z</time>
      </trkpt>
      <trkpt lat="45.98853" lon="4.4835">
        <ele>447.5</ele>
        <time>2014-09-16T12:07:32Z</time>
      </trkpt>
      <trkpt lat="45.98854" lon="4.48338">
        <ele>447.6</ele>
        <time>2014-09-16T12:07:35Z</time>
      </trkpt>
      <trkpt lat="45.98855" lon="4.48323">
        <ele>448</ele>
        <time>2014-09-16T12:07:39Z</time>
      </trkpt>
      <trkpt lat="45.98858" lon="4.48312">
        <ele>448.4</ele>
        <time>2014-09-16T12:07:44Z</time>
      </trkpt>
      <trkpt lat="45.98866" lon="4.48314">
        <ele>448.5</ele>
        <time>2014-09-16T12:07:48Z</time>
      </trkpt>
      <trkpt lat="45.98871" lon="4.48326">
        <ele>448.7</ele>
        <time>2014-09-16T12:07:52Z</time>
      </trkpt>
      <trkpt lat="45.98877" lon="4.48337">
        <ele>447.9</ele>
        <time>2014-09-16T12:07:57Z</time>
      </trkpt>
      <trkpt lat="45.98883" lon="4.48348">
        <ele>447.1</ele>
        <time>2014-09-16T12:08:02Z</time>
      </trkpt>
      <trkpt lat="45.9889" lon="4.48358">
        <ele>446.3</ele>
        <time>2014-09-16T12:08:07Z</time>
      </trkpt>
      <trkpt lat="45.98895" lon="4.48368">
        <ele>445.5</ele>
        <time>2014-09-16T12:08:11Z</time>
      </trkpt>
      <trkpt lat="45.989" lon="4.48381">
        <ele>444.6</ele>
        <time>2014-09-16T12:08:15Z</time>
      </trkpt>
      <trkpt lat="45.98904" lon="4.48392">
        <ele>443.8</ele>
        <time>2014-09-16T12:08:18Z</time>
      </trkpt>
      <trkpt lat="45.98906" lon="4.48404">
        <ele>443</ele>
        <time>2014-09-16T12:08:21Z</time>
      </trkpt>
      <trkpt lat="45.98909" lon="4.48416">
        <ele>441.5</ele>
        <time>2014-09-16T12:08:24Z</time>
      </trkpt>
      <trkpt lat="45.98911" lon="4.48428">
        <ele>439.9</ele>
        <time>2014-09-16T12:08:27Z</time>
      </trkpt>
      <trkpt lat="45.98914" lon="4.48439">
        <ele>438.4</ele>
        <time>2014-09-16T12:08:30Z</time>
      </trkpt>
      <trkpt lat="45.98918" lon="4.48453">
        <ele>436.8</ele>
        <time>2014-09-16T12:08:34Z</time>
      </trkpt>
      <trkpt lat="45.98922" lon="4.48463">
        <ele>436.3</ele>
        <time>2014-09-16T12:08:37Z</time>
      </trkpt>
      <trkpt lat="45.98927" lon="4.48475">
        <ele>435.7</ele>
        <time>2014-09-16T12:08:41Z</time>
      </trkpt>
      <trkpt lat="45.9893" lon="4.48488">
        <ele>434.5</ele>
        <time>2014-09-16T12:08:45Z</time>
      </trkpt>
      <trkpt lat="45.98933" lon="4.48503">
        <ele>433.4</ele>
        <time>2014-09-16T12:08:49Z</time>
      </trkpt>
      <trkpt lat="45.98934" lon="4.48516">
        <ele>432.2</ele>
        <time>2014-09-16T12:08:53Z</time>
      </trkpt>
      <trkpt lat="45.98935" lon="4.48529">
        <ele>431</ele>
        <time>2014-09-16T12:08:57Z</time>
      </trkpt>
      <trkpt lat="45.98934" lon="4.48541">
        <ele>429.8</ele>
        <time>2014-09-16T12:09:00Z</time>
      </trkpt>
      <trkpt lat="45.98934" lon="4.48555">
        <ele>429.2</ele>
        <time>2014-09-16T12:09:03Z</time>
      </trkpt>
      <trkpt lat="45.98934" lon="4.48568">
        <ele>428.5</ele>
        <time>2014-09-16T12:09:06Z</time>
      </trkpt>
      <trkpt lat="45.98935" lon="4.48581">
        <ele>427.7</ele>
        <time>2014-09-16T12:09:09Z</time>
      </trkpt>
      <trkpt lat="45.98936" lon="4.48596">
        <ele>427</ele>
        <time>2014-09-16T12:09:12Z</time>
      </trkpt>
      <trkpt lat="45.98938" lon="4.48614">
        <ele>425.6</ele>
        <time>2014-09-16T12:09:15Z</time>
      </trkpt>
      <trkpt lat="45.98939" lon="4.48631">
        <ele>424.3</ele>
        <time>2014-09-16T12:09:18Z</time>
      </trkpt>
      <trkpt lat="45.9894" lon="4.48648">
        <ele>423.5</ele>
        <time>2014-09-16T12:09:21Z</time>
      </trkpt>
      <trkpt lat="45.98941" lon="4.4866">
        <ele>422.8</ele>
        <time>2014-09-16T12:09:23Z</time>
      </trkpt>
      <trkpt lat="45.98941" lon="4.48677">
        <ele>421</ele>
        <time>2014-09-16T12:09:25Z</time>
      </trkpt>
      <trkpt lat="45.98937" lon="4.48739">
        <ele>419.2</ele>
        <time>2014-09-16T12:09:34Z</time>
      </trkpt>
      <trkpt lat="45.98937" lon="4.48752">
        <ele>417.4</ele>
        <time>2014-09-16T12:09:35Z</time>
      </trkpt>
      <trkpt lat="45.98939" lon="4.4877">
        <ele>418</ele>
        <time>2014-09-16T12:09:37Z</time>
      </trkpt>
      <trkpt lat="45.98942" lon="4.48787">
        <ele>418.7</ele>
        <time>2014-09-16T12:09:39Z</time>
      </trkpt>
      <trkpt lat="45.98948" lon="4.48802">
        <ele>419.5</ele>
        <time>2014-09-16T12:09:41Z</time>
      </trkpt>
      <trkpt lat="45.98955" lon="4.48812">
        <ele>420.2</ele>
        <time>2014-09-16T12:09:43Z</time>
      </trkpt>
      <trkpt lat="45.98962" lon="4.48822">
        <ele>421.5</ele>
        <time>2014-09-16T12:09:45Z</time>
      </trkpt>
      <trkpt lat="45.98969" lon="4.48831">
        <ele>422.9</ele>
        <time>2014-09-16T12:09:47Z</time>
      </trkpt>
      <trkpt lat="45.9898" lon="4.4884">
        <ele>424.3</ele>
        <time>2014-09-16T12:09:50Z</time>
      </trkpt>
      <trkpt lat="45.98991" lon="4.48848">
        <ele>423.3</ele>
        <time>2014-09-16T12:09:53Z</time>
      </trkpt>
      <trkpt lat="45.99" lon="4.48853">
        <ele>425.9</ele>
        <time>2014-09-16T12:09:55Z</time>
      </trkpt>
      <trkpt lat="45.9901" lon="4.4886">
        <ele>428.5</ele>
        <time>2014-09-16T12:09:57Z</time>
      </trkpt>
      <trkpt lat="45.9902" lon="4.48868">
        <ele>431.2</ele>
        <time>2014-09-16T12:09:59Z</time>
      </trkpt>
      <trkpt lat="45.99032" lon="4.48874">
        <ele>431.4</ele>
        <time>2014-09-16T12:10:01Z</time>
      </trkpt>
      <trkpt lat="45.99044" lon="4.48881">
        <ele>431.5</ele>
        <time>2014-09-16T12:10:03Z</time>
      </trkpt>
      <trkpt lat="45.99056" lon="4.4889">
        <ele>431.7</ele>
        <time>2014-09-16T12:10:05Z</time>
      </trkpt>
      <trkpt lat="45.99064" lon="4.489">
        <ele>431.9</ele>
        <time>2014-09-16T12:10:07Z</time>
      </trkpt>
      <trkpt lat="45.9907" lon="4.48911">
        <ele>431.4</ele>
        <time>2014-09-16T12:10:10Z</time>
      </trkpt>
      <trkpt lat="45.99078" lon="4.48914">
        <ele>430.8</ele>
        <time>2014-09-16T12:10:14Z</time>
      </trkpt>
      <trkpt lat="45.99086" lon="4.48923">
        <ele>430.3</ele>
        <time>2014-09-16T12:10:18Z</time>
      </trkpt>
      <trkpt lat="45.99087" lon="4.48936">
        <ele>432.1</ele>
        <time>2014-09-16T12:10:22Z</time>
      </trkpt>
      <trkpt lat="45.99088" lon="4.48949">
        <ele>431.4</ele>
        <time>2014-09-16T12:10:26Z</time>
      </trkpt>
      <trkpt lat="45.9909" lon="4.48963">
        <ele>430.6</ele>
        <time>2014-09-16T12:10:30Z</time>
      </trkpt>
      <trkpt lat="45.99092" lon="4.48977">
        <ele>429.9</ele>
        <time>2014-09-16T12:10:34Z</time>
      </trkpt>
      <trkpt lat="45.99096" lon="4.4899">
        <ele>428.7</ele>
        <time>2014-09-16T12:10:38Z</time>
      </trkpt>
      <trkpt lat="45.991" lon="4.49003">
        <ele>427.5</ele>
        <time>2014-09-16T12:10:42Z</time>
      </trkpt>
      <trkpt lat="45.99105" lon="4.49015">
        <ele>429.1</ele>
        <time>2014-09-16T12:10:46Z</time>
      </trkpt>
      <trkpt lat="45.9911" lon="4.49027">
        <ele>430.6</ele>
        <time>2014-09-16T12:10:50Z</time>
      </trkpt>
      <trkpt lat="45.99115" lon="4.49039">
        <ele>432.9</ele>
        <time>2014-09-16T12:10:54Z</time>
      </trkpt>
      <trkpt lat="45.9912" lon="4.49052">
        <ele>435.2</ele>
        <time>2014-09-16T12:10:58Z</time>
      </trkpt>
      <trkpt lat="45.99124" lon="4.49065">
        <ele>437.5</ele>
        <time>2014-09-16T12:11:02Z</time>
      </trkpt>
      <trkpt lat="45.99128" lon="4.49078">
        <ele>438.9</ele>
        <time>2014-09-16T12:11:06Z</time>
      </trkpt>
      <trkpt lat="45.99131" lon="4.49091">
        <ele>440.4</ele>
        <time>2014-09-16T12:11:10Z</time>
      </trkpt>
      <trkpt lat="45.99135" lon="4.49104">
        <ele>441.8</ele>
        <time>2014-09-16T12:11:14Z</time>
      </trkpt>
      <trkpt lat="45.99138" lon="4.49117">
        <ele>443.3</ele>
        <time>2014-09-16T12:11:18Z</time>
      </trkpt>
      <trkpt lat="45.99142" lon="4.49129">
        <ele>445.2</ele>
        <time>2014-09-16T12:11:22Z</time>
      </trkpt>
      <trkpt lat="45.99147" lon="4.49141">
        <ele>447.1</ele>
        <time>2014-09-16T12:11:26Z</time>
      </trkpt>
      <trkpt lat="45.99153" lon="4.4915">
        <ele>446.3</ele>
        <time>2014-09-16T12:11:30Z</time>
      </trkpt>
      <trkpt lat="45.99161" lon="4.49158">
        <ele>445.5</ele>
        <time>2014-09-16T12:11:34Z</time>
      </trkpt>
      <trkpt lat="45.99169" lon="4.49165">
        <ele>445.7</ele>
        <time>2014-09-16T12:11:38Z</time>
      </trkpt>
      <trkpt lat="45.99178" lon="4.49171">
        <ele>446</ele>
        <time>2014-09-16T12:11:42Z</time>
      </trkpt>
      <trkpt lat="45.99187" lon="4.49175">
        <ele>446.3</ele>
        <time>2014-09-16T12:11:46Z</time>
      </trkpt>
      <trkpt lat="45.99196" lon="4.49177">
        <ele>447.4</ele>
        <time>2014-09-16T12:11:50Z</time>
      </trkpt>
      <trkpt lat="45.99206" lon="4.49178">
        <ele>448.5</ele>
        <time>2014-09-16T12:11:54Z</time>
      </trkpt>
      <trkpt lat="45.99215" lon="4.49176">
        <ele>450.2</ele>
        <time>2014-09-16T12:11:58Z</time>
      </trkpt>
      <trkpt lat="45.99225" lon="4.49172">
        <ele>451.9</ele>
        <time>2014-09-16T12:12:02Z</time>
      </trkpt>
      <trkpt lat="45.99234" lon="4.49165">
        <ele>453.6</ele>
        <time>2014-09-16T12:12:05Z</time>
      </trkpt>
      <trkpt lat="45.99241" lon="4.49154">
        <ele>455.4</ele>
        <time>2014-09-16T12:12:08Z</time>
      </trkpt>
      <trkpt lat="45.99243" lon="4.49141">
        <ele>457.1</ele>
        <time>2014-09-16T12:12:11Z</time>
      </trkpt>
      <trkpt lat="45.99245" lon="4.49126">
        <ele>458.8</ele>
        <time>2014-09-16T12:12:15Z</time>
      </trkpt>
      <trkpt lat="45.99246" lon="4.49113">
        <ele>459.5</ele>
        <time>2014-09-16T12:12:19Z</time>
      </trkpt>
      <trkpt lat="45.99248" lon="4.49101">
        <ele>460.7</ele>
        <time>2014-09-16T12:12:23Z</time>
      </trkpt>
      <trkpt lat="45.99249" lon="4.49088">
        <ele>462</ele>
        <time>2014-09-16T12:12:29Z</time>
      </trkpt>
      <trkpt lat="45.99249" lon="4.49075">
        <ele>463.3</ele>
        <time>2014-09-16T12:12:37Z</time>
      </trkpt>
      <trkpt lat="45.9925" lon="4.49061">
        <ele>464.5</ele>
        <time>2014-09-16T12:12:43Z</time>
      </trkpt>
      <trkpt lat="45.99249" lon="4.4905">
        <ele>465.2</ele>
        <time>2014-09-16T12:12:47Z</time>
      </trkpt>
      <trkpt lat="45.99251" lon="4.49034">
        <ele>465.8</ele>
        <time>2014-09-16T12:12:51Z</time>
      </trkpt>
      <trkpt lat="45.99252" lon="4.49022">
        <ele>467.4</ele>
        <time>2014-09-16T12:12:54Z</time>
      </trkpt>
      <trkpt lat="45.99254" lon="4.49009">
        <ele>468.9</ele>
        <time>2014-09-16T12:12:58Z</time>
      </trkpt>
      <trkpt lat="45.99255" lon="4.48996">
        <ele>470.5</ele>
        <time>2014-09-16T12:13:03Z</time>
      </trkpt>
      <trkpt lat="45.99256" lon="4.48983">
        <ele>472</ele>
        <time>2014-09-16T12:13:07Z</time>
      </trkpt>
      <trkpt lat="45.99258" lon="4.48972">
        <ele>473.5</ele>
        <time>2014-09-16T12:13:11Z</time>
      </trkpt>
      <trkpt lat="45.99259" lon="4.4896">
        <ele>474.5</ele>
        <time>2014-09-16T12:13:18Z</time>
      </trkpt>
      <trkpt lat="45.99262" lon="4.48945">
        <ele>475.4</ele>
        <time>2014-09-16T12:13:23Z</time>
      </trkpt>
      <trkpt lat="45.99265" lon="4.48932">
        <ele>477.2</ele>
        <time>2014-09-16T12:13:26Z</time>
      </trkpt>
      <trkpt lat="45.99268" lon="4.48919">
        <ele>479</ele>
        <time>2014-09-16T12:13:29Z</time>
      </trkpt>
      <trkpt lat="45.99271" lon="4.48906">
        <ele>480.8</ele>
        <time>2014-09-16T12:13:33Z</time>
      </trkpt>
      <trkpt lat="45.99273" lon="4.48892">
        <ele>482.6</ele>
        <time>2014-09-16T12:13:38Z</time>
      </trkpt>
      <trkpt lat="45.99274" lon="4.48879">
        <ele>483.5</ele>
        <time>2014-09-16T12:13:43Z</time>
      </trkpt>
      <trkpt lat="45.99277" lon="4.48865">
        <ele>484.5</ele>
        <time>2014-09-16T12:13:48Z</time>
      </trkpt>
      <trkpt lat="45.99279" lon="4.48854">
        <ele>482.5</ele>
        <time>2014-09-16T12:13:54Z</time>
      </trkpt>
      <trkpt lat="45.99283" lon="4.48843">
        <ele>480.6</ele>
        <time>2014-09-16T12:13:59Z</time>
      </trkpt>
      <trkpt lat="45.99285" lon="4.48831">
        <ele>478.7</ele>
        <time>2014-09-16T12:14:04Z</time>
      </trkpt>
      <trkpt lat="45.99288" lon="4.48817">
        <ele>476.8</ele>
        <time>2014-09-16T12:14:09Z</time>
      </trkpt>
      <trkpt lat="45.9929" lon="4.48803">
        <ele>474.9</ele>
        <time>2014-09-16T12:14:12Z</time>
      </trkpt>
      <trkpt lat="45.99293" lon="4.48791">
        <ele>472.8</ele>
        <time>2014-09-16T12:14:14Z</time>
      </trkpt>
      <trkpt lat="45.99295" lon="4.4878">
        <ele>470.7</ele>
        <time>2014-09-16T12:14:16Z</time>
      </trkpt>
      <trkpt lat="45.99297" lon="4.48763">
        <ele>468.6</ele>
        <time>2014-09-16T12:14:19Z</time>
      </trkpt>
      <trkpt lat="45.993" lon="4.48751">
        <ele>466.5</ele>
        <time>2014-09-16T12:14:21Z</time>
      </trkpt>
      <trkpt lat="45.99303" lon="4.48736">
        <ele>464.7</ele>
        <time>2014-09-16T12:14:24Z</time>
      </trkpt>
      <trkpt lat="45.99311" lon="4.48687">
        <ele>462.9</ele>
        <time>2014-09-16T12:14:33Z</time>
      </trkpt>
      <trkpt lat="45.99313" lon="4.48671">
        <ele>463.9</ele>
        <time>2014-09-16T12:14:35Z</time>
      </trkpt>
      <trkpt lat="45.99314" lon="4.48656">
        <ele>464.9</ele>
        <time>2014-09-16T12:14:37Z</time>
      </trkpt>
      <trkpt lat="45.99314" lon="4.48643">
        <ele>465.9</ele>
        <time>2014-09-16T12:14:39Z</time>
      </trkpt>
      <trkpt lat="45.99313" lon="4.4863">
        <ele>466.9</ele>
        <time>2014-09-16T12:14:41Z</time>
      </trkpt>
      <trkpt lat="45.99312" lon="4.48618">
        <ele>468.6</ele>
        <time>2014-09-16T12:14:43Z</time>
      </trkpt>
      <trkpt lat="45.99312" lon="4.48601">
        <ele>469.6</ele>
        <time>2014-09-16T12:14:46Z</time>
      </trkpt>
      <trkpt lat="45.99313" lon="4.48587">
        <ele>470.6</ele>
        <time>2014-09-16T12:14:49Z</time>
      </trkpt>
      <trkpt lat="45.99314" lon="4.48573">
        <ele>471.6</ele>
        <time>2014-09-16T12:14:52Z</time>
      </trkpt>
      <trkpt lat="45.99317" lon="4.48557">
        <ele>472.6</ele>
        <time>2014-09-16T12:14:55Z</time>
      </trkpt>
      <trkpt lat="45.99318" lon="4.48542">
        <ele>473.4</ele>
        <time>2014-09-16T12:14:58Z</time>
      </trkpt>
      <trkpt lat="45.99319" lon="4.48526">
        <ele>474.8</ele>
        <time>2014-09-16T12:15:01Z</time>
      </trkpt>
      <trkpt lat="45.9932" lon="4.48514">
        <ele>476.3</ele>
        <time>2014-09-16T12:15:03Z</time>
      </trkpt>
      <trkpt lat="45.99322" lon="4.48502">
        <ele>477.7</ele>
        <time>2014-09-16T12:15:05Z</time>
      </trkpt>
      <trkpt lat="45.99322" lon="4.48485">
        <ele>479.2</ele>
        <time>2014-09-16T12:15:08Z</time>
      </trkpt>
      <trkpt lat="45.99322" lon="4.4847">
        <ele>480.6</ele>
        <time>2014-09-16T12:15:11Z</time>
      </trkpt>
      <trkpt lat="45.99321" lon="4.48456">
        <ele>481.4</ele>
        <time>2014-09-16T12:15:14Z</time>
      </trkpt>
      <trkpt lat="45.9932" lon="4.48443">
        <ele>482.3</ele>
        <time>2014-09-16T12:15:17Z</time>
      </trkpt>
      <trkpt lat="45.99318" lon="4.4843">
        <ele>483.2</ele>
        <time>2014-09-16T12:15:20Z</time>
      </trkpt>
      <trkpt lat="45.99316" lon="4.48416">
        <ele>484.1</ele>
        <time>2014-09-16T12:15:23Z</time>
      </trkpt>
      <trkpt lat="45.99315" lon="4.48402">
        <ele>485</ele>
        <time>2014-09-16T12:15:26Z</time>
      </trkpt>
      <trkpt lat="45.99312" lon="4.48389">
        <ele>485.9</ele>
        <time>2014-09-16T12:15:29Z</time>
      </trkpt>
      <trkpt lat="45.9931" lon="4.48376">
        <ele>486.1</ele>
        <time>2014-09-16T12:15:32Z</time>
      </trkpt>
      <trkpt lat="45.99308" lon="4.48364">
        <ele>485.4</ele>
        <time>2014-09-16T12:15:35Z</time>
      </trkpt>
      <trkpt lat="45.99307" lon="4.48351">
        <ele>484.6</ele>
        <time>2014-09-16T12:15:38Z</time>
      </trkpt>
      <trkpt lat="45.99305" lon="4.48339">
        <ele>483.9</ele>
        <time>2014-09-16T12:15:41Z</time>
      </trkpt>
      <trkpt lat="45.99304" lon="4.48326">
        <ele>483.2</ele>
        <time>2014-09-16T12:15:44Z</time>
      </trkpt>
      <trkpt lat="45.99302" lon="4.48314">
        <ele>482.5</ele>
        <time>2014-09-16T12:15:47Z</time>
      </trkpt>
      <trkpt lat="45.993" lon="4.48302">
        <ele>484.4</ele>
        <time>2014-09-16T12:15:50Z</time>
      </trkpt>
      <trkpt lat="45.99298" lon="4.48289">
        <ele>485.1</ele>
        <time>2014-09-16T12:15:53Z</time>
      </trkpt>
      <trkpt lat="45.99296" lon="4.48276">
        <ele>485.8</ele>
        <time>2014-09-16T12:15:56Z</time>
      </trkpt>
      <trkpt lat="45.99295" lon="4.48264">
        <ele>486.5</ele>
        <time>2014-09-16T12:15:59Z</time>
      </trkpt>
      <trkpt lat="45.99292" lon="4.48249">
        <ele>487.3</ele>
        <time>2014-09-16T12:16:03Z</time>
      </trkpt>
      <trkpt lat="45.99289" lon="4.48232">
        <ele>488</ele>
        <time>2014-09-16T12:16:06Z</time>
      </trkpt>
      <trkpt lat="45.99285" lon="4.48215">
        <ele>489.6</ele>
        <time>2014-09-16T12:16:09Z</time>
      </trkpt>
      <trkpt lat="45.99282" lon="4.48203">
        <ele>491.3</ele>
        <time>2014-09-16T12:16:11Z</time>
      </trkpt>
      <trkpt lat="45.99279" lon="4.48191">
        <ele>492.1</ele>
        <time>2014-09-16T12:16:13Z</time>
      </trkpt>
      <trkpt lat="45.99277" lon="4.48178">
        <ele>492.9</ele>
        <time>2014-09-16T12:16:15Z</time>
      </trkpt>
      <trkpt lat="45.99274" lon="4.48165">
        <ele>493.7</ele>
        <time>2014-09-16T12:16:17Z</time>
      </trkpt>
      <trkpt lat="45.99272" lon="4.48152">
        <ele>491.7</ele>
        <time>2014-09-16T12:16:19Z</time>
      </trkpt>
      <trkpt lat="45.99268" lon="4.48139">
        <ele>490.9</ele>
        <time>2014-09-16T12:16:21Z</time>
      </trkpt>
      <trkpt lat="45.99265" lon="4.48127">
        <ele>490.1</ele>
        <time>2014-09-16T12:16:23Z</time>
      </trkpt>
      <trkpt lat="45.99261" lon="4.4811">
        <ele>488.3</ele>
        <time>2014-09-16T12:16:25Z</time>
      </trkpt>
      <trkpt lat="45.99257" lon="4.48098">
        <ele>486.5</ele>
        <time>2014-09-16T12:16:27Z</time>
      </trkpt>
      <trkpt lat="45.99253" lon="4.48085">
        <ele>484.6</ele>
        <time>2014-09-16T12:16:29Z</time>
      </trkpt>
      <trkpt lat="45.99248" lon="4.48072">
        <ele>482.8</ele>
        <time>2014-09-16T12:16:31Z</time>
      </trkpt>
      <trkpt lat="45.99246" lon="4.48056">
        <ele>481</ele>
        <time>2014-09-16T12:16:33Z</time>
      </trkpt>
      <trkpt lat="45.99243" lon="4.48039">
        <ele>480</ele>
        <time>2014-09-16T12:16:35Z</time>
      </trkpt>
      <trkpt lat="45.9924" lon="4.48023">
        <ele>478.2</ele>
        <time>2014-09-16T12:16:37Z</time>
      </trkpt>
      <trkpt lat="45.99234" lon="4.48007">
        <ele>476.4</ele>
        <time>2014-09-16T12:16:39Z</time>
      </trkpt>
      <trkpt lat="45.9923" lon="4.47991">
        <ele>474.5</ele>
        <time>2014-09-16T12:16:41Z</time>
      </trkpt>
      <trkpt lat="45.99227" lon="4.47977">
        <ele>472.7</ele>
        <time>2014-09-16T12:16:43Z</time>
      </trkpt>
      <trkpt lat="45.99224" lon="4.47965">
        <ele>473.7</ele>
        <time>2014-09-16T12:16:45Z</time>
      </trkpt>
      <trkpt lat="45.99222" lon="4.47951">
        <ele>475.7</ele>
        <time>2014-09-16T12:16:48Z</time>
      </trkpt>
      <trkpt lat="45.99219" lon="4.47935">
        <ele>478.5</ele>
        <time>2014-09-16T12:16:51Z</time>
      </trkpt>
      <trkpt lat="45.99215" lon="4.47921">
        <ele>481.2</ele>
        <time>2014-09-16T12:16:54Z</time>
      </trkpt>
      <trkpt lat="45.99212" lon="4.47907">
        <ele>483.9</ele>
        <time>2014-09-16T12:16:57Z</time>
      </trkpt>
      <trkpt lat="45.99208" lon="4.47894">
        <ele>484</ele>
        <time>2014-09-16T12:17:00Z</time>
      </trkpt>
      <trkpt lat="45.99203" lon="4.47881">
        <ele>484.1</ele>
        <time>2014-09-16T12:17:03Z</time>
      </trkpt>
      <trkpt lat="45.992" lon="4.47868">
        <ele>485</ele>
        <time>2014-09-16T12:17:06Z</time>
      </trkpt>
      <trkpt lat="45.992" lon="4.47852">
        <ele>486.8</ele>
        <time>2014-09-16T12:17:09Z</time>
      </trkpt>
      <trkpt lat="45.99207" lon="4.47837">
        <ele>488.6</ele>
        <time>2014-09-16T12:17:12Z</time>
      </trkpt>
      <trkpt lat="45.99212" lon="4.47828">
        <ele>490.9</ele>
        <time>2014-09-16T12:17:14Z</time>
      </trkpt>
      <trkpt lat="45.99216" lon="4.47816">
        <ele>490.2</ele>
        <time>2014-09-16T12:17:17Z</time>
      </trkpt>
      <trkpt lat="45.9922" lon="4.47802">
        <ele>489.4</ele>
        <time>2014-09-16T12:17:21Z</time>
      </trkpt>
      <trkpt lat="45.99221" lon="4.4779">
        <ele>487.1</ele>
        <time>2014-09-16T12:17:24Z</time>
      </trkpt>
      <trkpt lat="45.99228" lon="4.47784">
        <ele>484.2</ele>
        <time>2014-09-16T12:17:44Z</time>
      </trkpt>
      <trkpt lat="45.99228" lon="4.47783">
        <ele>486</ele>
        <time>2014-09-16T12:17:49Z</time>
      </trkpt>
      <trkpt lat="45.99228" lon="4.47783">
        <ele>486</ele>
        <time>2014-09-16T12:17:49Z</time>
      </trkpt>
      <trkpt lat="45.99236" lon="4.47782">
        <ele>486</ele>
        <time>2014-09-16T12:18:02Z</time>
      </trkpt>
      <trkpt lat="45.99245" lon="4.4778">
        <ele>486</ele>
        <time>2014-09-16T12:18:12Z</time>
      </trkpt>
      <trkpt lat="45.99252" lon="4.47775">
        <ele>486</ele>
        <time>2014-09-16T12:18:19Z</time>
      </trkpt>
      <trkpt lat="45.99261" lon="4.4778">
        <ele>486</ele>
        <time>2014-09-16T12:18:30Z</time>
      </trkpt>
      <trkpt lat="45.99259" lon="4.47774">
        <ele>486</ele>
        <time>2014-09-16T12:18:45Z</time>
      </trkpt>
      <trkpt lat="45.9926" lon="4.47768">
        <ele>486</ele>
        <time>2014-09-16T12:18:50Z</time>
      </trkpt>
      <trkpt lat="45.9926" lon="4.47768">
        <ele>485.4</ele>
        <time>2014-09-16T12:18:50Z</time>
      </trkpt>
      <trkpt lat="45.99265" lon="4.47755">
        <ele>485</ele>
        <time>2014-09-16T12:18:55Z</time>
      </trkpt>
      <trkpt lat="45.99272" lon="4.4774">
        <ele>483</ele>
        <time>2014-09-16T12:18:58Z</time>
      </trkpt>
      <trkpt lat="45.99277" lon="4.4773">
        <ele>481.4</ele>
        <time>2014-09-16T12:19:00Z</time>
      </trkpt>
      <trkpt lat="45.99282" lon="4.47719">
        <ele>480.1</ele>
        <time>2014-09-16T12:19:04Z</time>
      </trkpt>
      <trkpt lat="45.99287" lon="4.47707">
        <ele>478.4</ele>
        <time>2014-09-16T12:19:09Z</time>
      </trkpt>
      <trkpt lat="45.99291" lon="4.47694">
        <ele>478</ele>
        <time>2014-09-16T12:19:13Z</time>
      </trkpt>
      <trkpt lat="45.99295" lon="4.47683">
        <ele>477.6</ele>
        <time>2014-09-16T12:19:16Z</time>
      </trkpt>
      <trkpt lat="45.99297" lon="4.4767">
        <ele>477.3</ele>
        <time>2014-09-16T12:19:19Z</time>
      </trkpt>
      <trkpt lat="45.99299" lon="4.47658">
        <ele>476.9</ele>
        <time>2014-09-16T12:19:22Z</time>
      </trkpt>
      <trkpt lat="45.99297" lon="4.47644">
        <ele>476.5</ele>
        <time>2014-09-16T12:19:26Z</time>
      </trkpt>
      <trkpt lat="45.99311" lon="4.47599">
        <ele>475.2</ele>
        <time>2014-09-16T12:19:57Z</time>
      </trkpt>
      <trkpt lat="45.99317" lon="4.47606">
        <ele>473.8</ele>
        <time>2014-09-16T12:20:00Z</time>
      </trkpt>
      <trkpt lat="45.99325" lon="4.47614">
        <ele>473.8</ele>
        <time>2014-09-16T12:20:04Z</time>
      </trkpt>
      <trkpt lat="45.99331" lon="4.47623">
        <ele>473.8</ele>
        <time>2014-09-16T12:20:09Z</time>
      </trkpt>
      <trkpt lat="45.99338" lon="4.47631">
        <ele>473.8</ele>
        <time>2014-09-16T12:20:14Z</time>
      </trkpt>
      <trkpt lat="45.99345" lon="4.47639">
        <ele>473.8</ele>
        <time>2014-09-16T12:20:21Z</time>
      </trkpt>
      <trkpt lat="45.99351" lon="4.47649">
        <ele>472.5</ele>
        <time>2014-09-16T12:20:25Z</time>
      </trkpt>
      <trkpt lat="45.99357" lon="4.47657">
        <ele>474.2</ele>
        <time>2014-09-16T12:20:29Z</time>
      </trkpt>
      <trkpt lat="45.99363" lon="4.4767">
        <ele>474.6</ele>
        <time>2014-09-16T12:20:34Z</time>
      </trkpt>
      <trkpt lat="45.99367" lon="4.47681">
        <ele>475.1</ele>
        <time>2014-09-16T12:20:38Z</time>
      </trkpt>
      <trkpt lat="45.99373" lon="4.47691">
        <ele>475.5</ele>
        <time>2014-09-16T12:20:42Z</time>
      </trkpt>
      <trkpt lat="45.99379" lon="4.47701">
        <ele>477.4</ele>
        <time>2014-09-16T12:20:48Z</time>
      </trkpt>
      <trkpt lat="45.99384" lon="4.47712">
        <ele>479.2</ele>
        <time>2014-09-16T12:20:53Z</time>
      </trkpt>
      <trkpt lat="45.99388" lon="4.47723">
        <ele>481</ele>
        <time>2014-09-16T12:20:57Z</time>
      </trkpt>
      <trkpt lat="45.99391" lon="4.47735">
        <ele>482.8</ele>
        <time>2014-09-16T12:21:02Z</time>
      </trkpt>
      <trkpt lat="45.99395" lon="4.47747">
        <ele>483.4</ele>
        <time>2014-09-16T12:21:07Z</time>
      </trkpt>
      <trkpt lat="45.994" lon="4.4776">
        <ele>483.9</ele>
        <time>2014-09-16T12:21:12Z</time>
      </trkpt>
      <trkpt lat="45.99404" lon="4.4777">
        <ele>484.5</ele>
        <time>2014-09-16T12:21:15Z</time>
      </trkpt>
      <trkpt lat="45.9941" lon="4.4778">
        <ele>481.9</ele>
        <time>2014-09-16T12:21:18Z</time>
      </trkpt>
      <trkpt lat="45.99414" lon="4.4779">
        <ele>480.6</ele>
        <time>2014-09-16T12:21:21Z</time>
      </trkpt>
      <trkpt lat="45.99419" lon="4.47803">
        <ele>479.4</ele>
        <time>2014-09-16T12:21:25Z</time>
      </trkpt>
      <trkpt lat="45.99424" lon="4.47815">
        <ele>476.8</ele>
        <time>2014-09-16T12:21:29Z</time>
      </trkpt>
      <trkpt lat="45.99425" lon="4.4783">
        <ele>474.3</ele>
        <time>2014-09-16T12:21:33Z</time>
      </trkpt>
      <trkpt lat="45.99426" lon="4.47842">
        <ele>471.7</ele>
        <time>2014-09-16T12:21:37Z</time>
      </trkpt>
      <trkpt lat="45.99429" lon="4.47856">
        <ele>469.2</ele>
        <time>2014-09-16T12:21:40Z</time>
      </trkpt>
      <trkpt lat="45.99432" lon="4.47868">
        <ele>466.6</ele>
        <time>2014-09-16T12:21:43Z</time>
      </trkpt>
      <trkpt lat="45.99435" lon="4.4788">
        <ele>465.4</ele>
        <time>2014-09-16T12:21:46Z</time>
      </trkpt>
      <trkpt lat="45.99438" lon="4.47893">
        <ele>464.1</ele>
        <time>2014-09-16T12:21:49Z</time>
      </trkpt>
      <trkpt lat="45.99441" lon="4.47904">
        <ele>465.4</ele>
        <time>2014-09-16T12:21:51Z</time>
      </trkpt>
      <trkpt lat="45.99445" lon="4.47916">
        <ele>466.6</ele>
        <time>2014-09-16T12:21:53Z</time>
      </trkpt>
      <trkpt lat="45.99448" lon="4.47927">
        <ele>467.9</ele>
        <time>2014-09-16T12:21:55Z</time>
      </trkpt>
      <trkpt lat="45.99454" lon="4.47938">
        <ele>469.2</ele>
        <time>2014-09-16T12:21:58Z</time>
      </trkpt>
      <trkpt lat="45.99459" lon="4.47952">
        <ele>471.7</ele>
        <time>2014-09-16T12:22:02Z</time>
      </trkpt>
      <trkpt lat="45.99465" lon="4.47965">
        <ele>474.3</ele>
        <time>2014-09-16T12:22:06Z</time>
      </trkpt>
      <trkpt lat="45.9947" lon="4.47975">
        <ele>476.8</ele>
        <time>2014-09-16T12:22:09Z</time>
      </trkpt>
      <trkpt lat="45.99476" lon="4.47985">
        <ele>477.4</ele>
        <time>2014-09-16T12:22:13Z</time>
      </trkpt>
      <trkpt lat="45.99479" lon="4.47996">
        <ele>477.9</ele>
        <time>2014-09-16T12:22:17Z</time>
      </trkpt>
      <trkpt lat="45.99485" lon="4.48011">
        <ele>478.5</ele>
        <time>2014-09-16T12:22:21Z</time>
      </trkpt>
      <trkpt lat="45.99492" lon="4.48025">
        <ele>479</ele>
        <time>2014-09-16T12:22:24Z</time>
      </trkpt>
      <trkpt lat="45.99497" lon="4.48035">
        <ele>477</ele>
        <time>2014-09-16T12:22:26Z</time>
      </trkpt>
      <trkpt lat="45.99504" lon="4.48048">
        <ele>475</ele>
        <time>2014-09-16T12:22:29Z</time>
      </trkpt>
      <trkpt lat="45.99511" lon="4.4806">
        <ele>476.5</ele>
        <time>2014-09-16T12:22:32Z</time>
      </trkpt>
      <trkpt lat="45.99517" lon="4.4807">
        <ele>477.9</ele>
        <time>2014-09-16T12:22:36Z</time>
      </trkpt>
      <trkpt lat="45.99524" lon="4.48078">
        <ele>479.4</ele>
        <time>2014-09-16T12:22:39Z</time>
      </trkpt>
      <trkpt lat="45.99532" lon="4.48084">
        <ele>480.8</ele>
        <time>2014-09-16T12:22:42Z</time>
      </trkpt>
      <trkpt lat="45.99542" lon="4.48092">
        <ele>480.7</ele>
        <time>2014-09-16T12:22:46Z</time>
      </trkpt>
      <trkpt lat="45.99549" lon="4.48098">
        <ele>482.6</ele>
        <time>2014-09-16T12:22:49Z</time>
      </trkpt>
      <trkpt lat="45.99557" lon="4.48108">
        <ele>484.5</ele>
        <time>2014-09-16T12:22:53Z</time>
      </trkpt>
      <trkpt lat="45.99564" lon="4.48116">
        <ele>486.5</ele>
        <time>2014-09-16T12:22:56Z</time>
      </trkpt>
      <trkpt lat="45.9957" lon="4.48126">
        <ele>488.4</ele>
        <time>2014-09-16T12:23:01Z</time>
      </trkpt>
      <trkpt lat="45.99573" lon="4.4814">
        <ele>490.3</ele>
        <time>2014-09-16T12:23:06Z</time>
      </trkpt>
      <trkpt lat="45.99579" lon="4.48149">
        <ele>492.2</ele>
        <time>2014-09-16T12:23:13Z</time>
      </trkpt>
      <trkpt lat="45.99582" lon="4.48161">
        <ele>490.5</ele>
        <time>2014-09-16T12:23:26Z</time>
      </trkpt>
      <trkpt lat="45.99584" lon="4.48173">
        <ele>488.7</ele>
        <time>2014-09-16T12:23:30Z</time>
      </trkpt>
      <trkpt lat="45.99588" lon="4.48186">
        <ele>487</ele>
        <time>2014-09-16T12:23:34Z</time>
      </trkpt>
      <trkpt lat="45.99592" lon="4.48197">
        <ele>485.3</ele>
        <time>2014-09-16T12:23:37Z</time>
      </trkpt>
      <trkpt lat="45.99595" lon="4.4821">
        <ele>485.1</ele>
        <time>2014-09-16T12:23:41Z</time>
      </trkpt>
      <trkpt lat="45.99599" lon="4.48223">
        <ele>484.9</ele>
        <time>2014-09-16T12:23:45Z</time>
      </trkpt>
      <trkpt lat="45.99602" lon="4.48235">
        <ele>485.2</ele>
        <time>2014-09-16T12:23:50Z</time>
      </trkpt>
      <trkpt lat="45.99606" lon="4.48244">
        <ele>485.5</ele>
        <time>2014-09-16T12:23:53Z</time>
      </trkpt>
      <trkpt lat="45.99612" lon="4.48257">
        <ele>485.7</ele>
        <time>2014-09-16T12:23:57Z</time>
      </trkpt>
      <trkpt lat="45.99618" lon="4.48267">
        <ele>486</ele>
        <time>2014-09-16T12:24:01Z</time>
      </trkpt>
      <trkpt lat="45.99626" lon="4.48273">
        <ele>486.3</ele>
        <time>2014-09-16T12:24:05Z</time>
      </trkpt>
      <trkpt lat="45.99635" lon="4.48276">
        <ele>486.7</ele>
        <time>2014-09-16T12:24:09Z</time>
      </trkpt>
      <trkpt lat="45.99643" lon="4.48278">
        <ele>487.2</ele>
        <time>2014-09-16T12:24:17Z</time>
      </trkpt>
      <trkpt lat="45.99652" lon="4.4828">
        <ele>487.6</ele>
        <time>2014-09-16T12:24:24Z</time>
      </trkpt>
      <trkpt lat="45.9966" lon="4.4828">
        <ele>488.1</ele>
        <time>2014-09-16T12:24:35Z</time>
      </trkpt>
      <trkpt lat="45.9967" lon="4.48274">
        <ele>486.1</ele>
        <time>2014-09-16T12:24:39Z</time>
      </trkpt>
      <trkpt lat="45.99681" lon="4.48268">
        <ele>484.1</ele>
        <time>2014-09-16T12:24:42Z</time>
      </trkpt>
      <trkpt lat="45.99689" lon="4.48266">
        <ele>481.6</ele>
        <time>2014-09-16T12:24:44Z</time>
      </trkpt>
      <trkpt lat="45.99697" lon="4.48262">
        <ele>479.2</ele>
        <time>2014-09-16T12:24:46Z</time>
      </trkpt>
      <trkpt lat="45.99706" lon="4.4826">
        <ele>476.7</ele>
        <time>2014-09-16T12:24:48Z</time>
      </trkpt>
      <trkpt lat="45.99714" lon="4.48258">
        <ele>474.3</ele>
        <time>2014-09-16T12:24:50Z</time>
      </trkpt>
      <trkpt lat="45.99722" lon="4.48257">
        <ele>471.8</ele>
        <time>2014-09-16T12:24:52Z</time>
      </trkpt>
      <trkpt lat="45.99733" lon="4.48254">
        <ele>469.4</ele>
        <time>2014-09-16T12:24:55Z</time>
      </trkpt>
      <trkpt lat="45.99741" lon="4.48247">
        <ele>465.6</ele>
        <time>2014-09-16T12:24:58Z</time>
      </trkpt>
      <trkpt lat="45.99752" lon="4.48238">
        <ele>461.9</ele>
        <time>2014-09-16T12:25:01Z</time>
      </trkpt>
      <trkpt lat="45.99762" lon="4.48232">
        <ele>458.2</ele>
        <time>2014-09-16T12:25:03Z</time>
      </trkpt>
      <trkpt lat="45.99775" lon="4.48228">
        <ele>456.9</ele>
        <time>2014-09-16T12:25:06Z</time>
      </trkpt>
      <trkpt lat="45.99786" lon="4.48222">
        <ele>455.6</ele>
        <time>2014-09-16T12:25:08Z</time>
      </trkpt>
      <trkpt lat="45.99796" lon="4.48222">
        <ele>454.4</ele>
        <time>2014-09-16T12:25:10Z</time>
      </trkpt>
      <trkpt lat="45.99807" lon="4.48224">
        <ele>453.1</ele>
        <time>2014-09-16T12:25:13Z</time>
      </trkpt>
      <trkpt lat="45.99816" lon="4.48226">
        <ele>453.2</ele>
        <time>2014-09-16T12:25:17Z</time>
      </trkpt>
      <trkpt lat="45.99828" lon="4.48223">
        <ele>453.3</ele>
        <time>2014-09-16T12:25:22Z</time>
      </trkpt>
      <trkpt lat="45.99839" lon="4.48221">
        <ele>453.4</ele>
        <time>2014-09-16T12:25:25Z</time>
      </trkpt>
      <trkpt lat="45.9985" lon="4.48224">
        <ele>451.3</ele>
        <time>2014-09-16T12:25:28Z</time>
      </trkpt>
      <trkpt lat="45.9986" lon="4.48222">
        <ele>450.5</ele>
        <time>2014-09-16T12:25:32Z</time>
      </trkpt>
      <trkpt lat="45.99868" lon="4.48214">
        <ele>449.6</ele>
        <time>2014-09-16T12:25:36Z</time>
      </trkpt>
      <trkpt lat="45.99873" lon="4.48204">
        <ele>448.8</ele>
        <time>2014-09-16T12:25:40Z</time>
      </trkpt>
      <trkpt lat="45.99879" lon="4.48196">
        <ele>448</ele>
        <time>2014-09-16T12:25:44Z</time>
      </trkpt>
      <trkpt lat="45.99887" lon="4.48188">
        <ele>446.5</ele>
        <time>2014-09-16T12:25:48Z</time>
      </trkpt>
      <trkpt lat="45.99894" lon="4.48179">
        <ele>445.1</ele>
        <time>2014-09-16T12:25:51Z</time>
      </trkpt>
      <trkpt lat="45.99902" lon="4.48168">
        <ele>443.6</ele>
        <time>2014-09-16T12:25:54Z</time>
      </trkpt>
      <trkpt lat="45.99908" lon="4.48156">
        <ele>440.8</ele>
        <time>2014-09-16T12:25:57Z</time>
      </trkpt>
      <trkpt lat="45.99914" lon="4.48147">
        <ele>438</ele>
        <time>2014-09-16T12:26:00Z</time>
      </trkpt>
      <trkpt lat="45.99919" lon="4.48133">
        <ele>435.2</ele>
        <time>2014-09-16T12:26:04Z</time>
      </trkpt>
      <trkpt lat="45.99924" lon="4.48118">
        <ele>434.5</ele>
        <time>2014-09-16T12:26:07Z</time>
      </trkpt>
      <trkpt lat="45.99928" lon="4.48107">
        <ele>433.9</ele>
        <time>2014-09-16T12:26:09Z</time>
      </trkpt>
      <trkpt lat="45.99934" lon="4.48092">
        <ele>433.3</ele>
        <time>2014-09-16T12:26:12Z</time>
      </trkpt>
      <trkpt lat="45.9994" lon="4.48083">
        <ele>432.6</ele>
        <time>2014-09-16T12:26:15Z</time>
      </trkpt>
      <trkpt lat="45.99943" lon="4.48069">
        <ele>432</ele>
        <time>2014-09-16T12:26:19Z</time>
      </trkpt>
      <trkpt lat="45.99948" lon="4.48059">
        <ele>432</ele>
        <time>2014-09-16T12:26:25Z</time>
      </trkpt>
      <trkpt lat="45.99951" lon="4.48072">
        <ele>432.6</ele>
        <time>2014-09-16T12:26:31Z</time>
      </trkpt>
      <trkpt lat="45.99949" lon="4.48086">
        <ele>430.7</ele>
        <time>2014-09-16T12:26:52Z</time>
      </trkpt>
      <trkpt lat="45.99951" lon="4.481">
        <ele>428.8</ele>
        <time>2014-09-16T12:26:55Z</time>
      </trkpt>
      <trkpt lat="45.99955" lon="4.48115">
        <ele>426.9</ele>
        <time>2014-09-16T12:26:58Z</time>
      </trkpt>
      <trkpt lat="45.99958" lon="4.48127">
        <ele>425</ele>
        <time>2014-09-16T12:27:00Z</time>
      </trkpt>
      <trkpt lat="45.9996" lon="4.48139">
        <ele>423.1</ele>
        <time>2014-09-16T12:27:02Z</time>
      </trkpt>
      <trkpt lat="45.99963" lon="4.48151">
        <ele>421.2</ele>
        <time>2014-09-16T12:27:04Z</time>
      </trkpt>
      <trkpt lat="45.99967" lon="4.48163">
        <ele>419.3</ele>
        <time>2014-09-16T12:27:06Z</time>
      </trkpt>
      <trkpt lat="45.99971" lon="4.48175">
        <ele>417.4</ele>
        <time>2014-09-16T12:27:08Z</time>
      </trkpt>
      <trkpt lat="45.99974" lon="4.48187">
        <ele>415.5</ele>
        <time>2014-09-16T12:27:10Z</time>
      </trkpt>
      <trkpt lat="45.99979" lon="4.48201">
        <ele>413.5</ele>
        <time>2014-09-16T12:27:12Z</time>
      </trkpt>
      <trkpt lat="45.99981" lon="4.48213">
        <ele>411</ele>
        <time>2014-09-16T12:27:14Z</time>
      </trkpt>
      <trkpt lat="45.99982" lon="4.48231">
        <ele>411</ele>
        <time>2014-09-16T12:27:17Z</time>
      </trkpt>
      <trkpt lat="45.99982" lon="4.48245">
        <ele>410.1</ele>
        <time>2014-09-16T12:27:19Z</time>
      </trkpt>
      <trkpt lat="45.99981" lon="4.4826">
        <ele>409.2</ele>
        <time>2014-09-16T12:27:21Z</time>
      </trkpt>
      <trkpt lat="45.99978" lon="4.48273">
        <ele>410.9</ele>
        <time>2014-09-16T12:27:23Z</time>
      </trkpt>
      <trkpt lat="45.99975" lon="4.48288">
        <ele>412.6</ele>
        <time>2014-09-16T12:27:25Z</time>
      </trkpt>
      <trkpt lat="45.99972" lon="4.48302">
        <ele>414.4</ele>
        <time>2014-09-16T12:27:27Z</time>
      </trkpt>
      <trkpt lat="45.9997" lon="4.48315">
        <ele>416.1</ele>
        <time>2014-09-16T12:27:29Z</time>
      </trkpt>
      <trkpt lat="45.99966" lon="4.48328">
        <ele>416.4</ele>
        <time>2014-09-16T12:27:31Z</time>
      </trkpt>
      <trkpt lat="45.99961" lon="4.48342">
        <ele>416.6</ele>
        <time>2014-09-16T12:27:33Z</time>
      </trkpt>
      <trkpt lat="45.99956" lon="4.48356">
        <ele>416.9</ele>
        <time>2014-09-16T12:27:35Z</time>
      </trkpt>
      <trkpt lat="45.99951" lon="4.48367">
        <ele>417.2</ele>
        <time>2014-09-16T12:27:37Z</time>
      </trkpt>
      <trkpt lat="45.99945" lon="4.48377">
        <ele>417.5</ele>
        <time>2014-09-16T12:27:39Z</time>
      </trkpt>
      <trkpt lat="45.99937" lon="4.48385">
        <ele>418.6</ele>
        <time>2014-09-16T12:27:41Z</time>
      </trkpt>
      <trkpt lat="45.99929" lon="4.4839">
        <ele>421.3</ele>
        <time>2014-09-16T12:27:43Z</time>
      </trkpt>
      <trkpt lat="45.99919" lon="4.48392">
        <ele>421</ele>
        <time>2014-09-16T12:27:45Z</time>
      </trkpt>
      <trkpt lat="45.9991" lon="4.48393">
        <ele>420.7</ele>
        <time>2014-09-16T12:27:47Z</time>
      </trkpt>
      <trkpt lat="45.999" lon="4.48391">
        <ele>420.5</ele>
        <time>2014-09-16T12:27:49Z</time>
      </trkpt>
      <trkpt lat="45.99891" lon="4.48387">
        <ele>420.2</ele>
        <time>2014-09-16T12:27:51Z</time>
      </trkpt>
      <trkpt lat="45.99881" lon="4.48383">
        <ele>420.3</ele>
        <time>2014-09-16T12:27:53Z</time>
      </trkpt>
      <trkpt lat="45.99869" lon="4.48379">
        <ele>420.4</ele>
        <time>2014-09-16T12:27:55Z</time>
      </trkpt>
      <trkpt lat="45.99857" lon="4.48374">
        <ele>420.5</ele>
        <time>2014-09-16T12:27:57Z</time>
      </trkpt>
      <trkpt lat="45.99846" lon="4.48373">
        <ele>420.5</ele>
        <time>2014-09-16T12:27:59Z</time>
      </trkpt>
      <trkpt lat="45.99837" lon="4.48378">
        <ele>420.6</ele>
        <time>2014-09-16T12:28:01Z</time>
      </trkpt>
      <trkpt lat="45.9983" lon="4.48389">
        <ele>420.7</ele>
        <time>2014-09-16T12:28:03Z</time>
      </trkpt>
      <trkpt lat="45.99828" lon="4.48404">
        <ele>419.4</ele>
        <time>2014-09-16T12:28:05Z</time>
      </trkpt>
      <trkpt lat="45.9983" lon="4.4842">
        <ele>418.3</ele>
        <time>2014-09-16T12:28:07Z</time>
      </trkpt>
      <trkpt lat="45.99833" lon="4.48436">
        <ele>417.2</ele>
        <time>2014-09-16T12:28:09Z</time>
      </trkpt>
      <trkpt lat="45.99837" lon="4.48453">
        <ele>416.1</ele>
        <time>2014-09-16T12:28:11Z</time>
      </trkpt>
      <trkpt lat="45.99841" lon="4.48472">
        <ele>413.9</ele>
        <time>2014-09-16T12:28:13Z</time>
      </trkpt>
      <trkpt lat="45.99847" lon="4.48489">
        <ele>412.8</ele>
        <time>2014-09-16T12:28:15Z</time>
      </trkpt>
      <trkpt lat="45.99854" lon="4.48507">
        <ele>411.7</ele>
        <time>2014-09-16T12:28:17Z</time>
      </trkpt>
      <trkpt lat="45.99862" lon="4.48522">
        <ele>410.6</ele>
        <time>2014-09-16T12:28:19Z</time>
      </trkpt>
      <trkpt lat="45.99873" lon="4.48539">
        <ele>409.5</ele>
        <time>2014-09-16T12:28:21Z</time>
      </trkpt>
      <trkpt lat="45.99884" lon="4.48554">
        <ele>408.5</ele>
        <time>2014-09-16T12:28:23Z</time>
      </trkpt>
      <trkpt lat="45.99894" lon="4.48568">
        <ele>407.8</ele>
        <time>2014-09-16T12:28:25Z</time>
      </trkpt>
      <trkpt lat="45.99902" lon="4.48584">
        <ele>407.2</ele>
        <time>2014-09-16T12:28:27Z</time>
      </trkpt>
      <trkpt lat="45.99907" lon="4.48596">
        <ele>406.5</ele>
        <time>2014-09-16T12:28:29Z</time>
      </trkpt>
      <trkpt lat="45.99914" lon="4.48608">
        <ele>405.9</ele>
        <time>2014-09-16T12:28:31Z</time>
      </trkpt>
      <trkpt lat="45.99921" lon="4.48621">
        <ele>405.3</ele>
        <time>2014-09-16T12:28:33Z</time>
      </trkpt>
      <trkpt lat="45.9993" lon="4.48635">
        <ele>406.1</ele>
        <time>2014-09-16T12:28:35Z</time>
      </trkpt>
      <trkpt lat="45.99937" lon="4.48651">
        <ele>403.7</ele>
        <time>2014-09-16T12:28:37Z</time>
      </trkpt>
      <trkpt lat="45.99945" lon="4.48667">
        <ele>401.4</ele>
        <time>2014-09-16T12:28:39Z</time>
      </trkpt>
      <trkpt lat="45.99952" lon="4.48685">
        <ele>399</ele>
        <time>2014-09-16T12:28:41Z</time>
      </trkpt>
      <trkpt lat="45.99958" lon="4.48703">
        <ele>396.6</ele>
        <time>2014-09-16T12:28:43Z</time>
      </trkpt>
      <trkpt lat="45.99963" lon="4.4872">
        <ele>394.4</ele>
        <time>2014-09-16T12:28:45Z</time>
      </trkpt>
      <trkpt lat="45.99968" lon="4.48737">
        <ele>391.6</ele>
        <time>2014-09-16T12:28:47Z</time>
      </trkpt>
      <trkpt lat="45.99972" lon="4.48753">
        <ele>388.9</ele>
        <time>2014-09-16T12:28:49Z</time>
      </trkpt>
      <trkpt lat="45.99974" lon="4.4877">
        <ele>386.2</ele>
        <time>2014-09-16T12:28:51Z</time>
      </trkpt>
      <trkpt lat="45.99977" lon="4.48788">
        <ele>383.1</ele>
        <time>2014-09-16T12:28:53Z</time>
      </trkpt>
      <trkpt lat="45.99979" lon="4.48806">
        <ele>380</ele>
        <time>2014-09-16T12:28:55Z</time>
      </trkpt>
      <trkpt lat="45.99981" lon="4.48824">
        <ele>376.5</ele>
        <time>2014-09-16T12:28:57Z</time>
      </trkpt>
      <trkpt lat="45.99982" lon="4.48843">
        <ele>376.3</ele>
        <time>2014-09-16T12:28:59Z</time>
      </trkpt>
      <trkpt lat="45.99982" lon="4.48861">
        <ele>375.3</ele>
        <time>2014-09-16T12:29:01Z</time>
      </trkpt>
      <trkpt lat="45.9998" lon="4.4888">
        <ele>374.3</ele>
        <time>2014-09-16T12:29:03Z</time>
      </trkpt>
      <trkpt lat="45.9998" lon="4.489">
        <ele>373.3</ele>
        <time>2014-09-16T12:29:05Z</time>
      </trkpt>
      <trkpt lat="45.99978" lon="4.48921">
        <ele>372.2</ele>
        <time>2014-09-16T12:29:07Z</time>
      </trkpt>
      <trkpt lat="45.99975" lon="4.48942">
        <ele>371.1</ele>
        <time>2014-09-16T12:29:09Z</time>
      </trkpt>
      <trkpt lat="45.99973" lon="4.48966">
        <ele>370</ele>
        <time>2014-09-16T12:29:11Z</time>
      </trkpt>
      <trkpt lat="45.99971" lon="4.48979">
        <ele>368.4</ele>
        <time>2014-09-16T12:29:12Z</time>
      </trkpt>
      <trkpt lat="45.99971" lon="4.48991">
        <ele>367.1</ele>
        <time>2014-09-16T12:29:13Z</time>
      </trkpt>
      <trkpt lat="45.9997" lon="4.49005">
        <ele>365.8</ele>
        <time>2014-09-16T12:29:14Z</time>
      </trkpt>
      <trkpt lat="45.99969" lon="4.49018">
        <ele>364.5</ele>
        <time>2014-09-16T12:29:15Z</time>
      </trkpt>
      <trkpt lat="45.99967" lon="4.49032">
        <ele>367.3</ele>
        <time>2014-09-16T12:29:16Z</time>
      </trkpt>
      <trkpt lat="45.99967" lon="4.49045">
        <ele>369.6</ele>
        <time>2014-09-16T12:29:17Z</time>
      </trkpt>
      <trkpt lat="45.99966" lon="4.49067">
        <ele>372</ele>
        <time>2014-09-16T12:29:19Z</time>
      </trkpt>
      <trkpt lat="45.99964" lon="4.49089">
        <ele>374.4</ele>
        <time>2014-09-16T12:29:21Z</time>
      </trkpt>
      <trkpt lat="45.99964" lon="4.49112">
        <ele>375.7</ele>
        <time>2014-09-16T12:29:23Z</time>
      </trkpt>
      <trkpt lat="45.99961" lon="4.4913">
        <ele>377.1</ele>
        <time>2014-09-16T12:29:25Z</time>
      </trkpt>
      <trkpt lat="45.99957" lon="4.4915">
        <ele>378.5</ele>
        <time>2014-09-16T12:29:27Z</time>
      </trkpt>
      <trkpt lat="45.99944" lon="4.492">
        <ele>380.4</ele>
        <time>2014-09-16T12:29:34Z</time>
      </trkpt>
      <trkpt lat="45.99944" lon="4.49215">
        <ele>382.3</ele>
        <time>2014-09-16T12:29:35Z</time>
      </trkpt>
      <trkpt lat="45.99946" lon="4.49235">
        <ele>383.5</ele>
        <time>2014-09-16T12:29:37Z</time>
      </trkpt>
      <trkpt lat="45.99947" lon="4.49253">
        <ele>384.6</ele>
        <time>2014-09-16T12:29:39Z</time>
      </trkpt>
      <trkpt lat="45.99948" lon="4.49268">
        <ele>381.8</ele>
        <time>2014-09-16T12:29:41Z</time>
      </trkpt>
      <trkpt lat="45.99948" lon="4.49281">
        <ele>380.1</ele>
        <time>2014-09-16T12:29:43Z</time>
      </trkpt>
      <trkpt lat="45.99947" lon="4.49293">
        <ele>378.4</ele>
        <time>2014-09-16T12:29:45Z</time>
      </trkpt>
      <trkpt lat="45.99943" lon="4.49305">
        <ele>376.6</ele>
        <time>2014-09-16T12:29:48Z</time>
      </trkpt>
      <trkpt lat="45.99941" lon="4.49321">
        <ele>374.8</ele>
        <time>2014-09-16T12:29:51Z</time>
      </trkpt>
      <trkpt lat="45.99937" lon="4.49332">
        <ele>373</ele>
        <time>2014-09-16T12:29:53Z</time>
      </trkpt>
      <trkpt lat="45.99936" lon="4.49345">
        <ele>371.2</ele>
        <time>2014-09-16T12:29:55Z</time>
      </trkpt>
      <trkpt lat="45.99936" lon="4.49359">
        <ele>369.4</ele>
        <time>2014-09-16T12:29:56Z</time>
      </trkpt>
      <trkpt lat="45.99935" lon="4.49375">
        <ele>367.5</ele>
        <time>2014-09-16T12:29:58Z</time>
      </trkpt>
      <trkpt lat="45.99932" lon="4.4939">
        <ele>365.7</ele>
        <time>2014-09-16T12:30:00Z</time>
      </trkpt>
      <trkpt lat="45.9993" lon="4.49405">
        <ele>363.9</ele>
        <time>2014-09-16T12:30:02Z</time>
      </trkpt>
      <trkpt lat="45.99927" lon="4.49421">
        <ele>362.1</ele>
        <time>2014-09-16T12:30:04Z</time>
      </trkpt>
      <trkpt lat="45.99925" lon="4.49438">
        <ele>360.3</ele>
        <time>2014-09-16T12:30:06Z</time>
      </trkpt>
      <trkpt lat="45.99922" lon="4.49456">
        <ele>358.5</ele>
        <time>2014-09-16T12:30:08Z</time>
      </trkpt>
      <trkpt lat="45.9992" lon="4.49472">
        <ele>356.6</ele>
        <time>2014-09-16T12:30:10Z</time>
      </trkpt>
      <trkpt lat="45.99917" lon="4.49489">
        <ele>355.3</ele>
        <time>2014-09-16T12:30:12Z</time>
      </trkpt>
      <trkpt lat="45.99914" lon="4.49503">
        <ele>355.2</ele>
        <time>2014-09-16T12:30:14Z</time>
      </trkpt>
      <trkpt lat="45.9991" lon="4.49515">
        <ele>355.1</ele>
        <time>2014-09-16T12:30:16Z</time>
      </trkpt>
      <trkpt lat="45.99905" lon="4.49527">
        <ele>355</ele>
        <time>2014-09-16T12:30:18Z</time>
      </trkpt>
      <trkpt lat="45.99896" lon="4.49541">
        <ele>354.9</ele>
        <time>2014-09-16T12:30:20Z</time>
      </trkpt>
      <trkpt lat="45.99886" lon="4.49557">
        <ele>354</ele>
        <time>2014-09-16T12:30:22Z</time>
      </trkpt>
      <trkpt lat="45.99879" lon="4.49573">
        <ele>353.1</ele>
        <time>2014-09-16T12:30:24Z</time>
      </trkpt>
      <trkpt lat="45.99873" lon="4.4959">
        <ele>352.2</ele>
        <time>2014-09-16T12:30:26Z</time>
      </trkpt>
      <trkpt lat="45.99868" lon="4.49606">
        <ele>351.3</ele>
        <time>2014-09-16T12:30:28Z</time>
      </trkpt>
      <trkpt lat="45.99862" lon="4.49622">
        <ele>350.4</ele>
        <time>2014-09-16T12:30:30Z</time>
      </trkpt>
      <trkpt lat="45.99855" lon="4.4964">
        <ele>349.5</ele>
        <time>2014-09-16T12:30:32Z</time>
      </trkpt>
      <trkpt lat="45.99845" lon="4.49656">
        <ele>349.2</ele>
        <time>2014-09-16T12:30:34Z</time>
      </trkpt>
      <trkpt lat="45.99836" lon="4.49672">
        <ele>347.5</ele>
        <time>2014-09-16T12:30:36Z</time>
      </trkpt>
      <trkpt lat="45.99825" lon="4.49685">
        <ele>345.7</ele>
        <time>2014-09-16T12:30:38Z</time>
      </trkpt>
      <trkpt lat="45.99812" lon="4.497">
        <ele>344</ele>
        <time>2014-09-16T12:30:40Z</time>
      </trkpt>
      <trkpt lat="45.99805" lon="4.49705">
        <ele>342.3</ele>
        <time>2014-09-16T12:30:41Z</time>
      </trkpt>
      <trkpt lat="45.99796" lon="4.49711">
        <ele>342.1</ele>
        <time>2014-09-16T12:30:42Z</time>
      </trkpt>
      <trkpt lat="45.99787" lon="4.49716">
        <ele>341.9</ele>
        <time>2014-09-16T12:30:43Z</time>
      </trkpt>
      <trkpt lat="45.99779" lon="4.49722">
        <ele>341.7</ele>
        <time>2014-09-16T12:30:44Z</time>
      </trkpt>
      <trkpt lat="45.99771" lon="4.49728">
        <ele>341.5</ele>
        <time>2014-09-16T12:30:45Z</time>
      </trkpt>
      <trkpt lat="45.99763" lon="4.49734">
        <ele>339.7</ele>
        <time>2014-09-16T12:30:46Z</time>
      </trkpt>
      <trkpt lat="45.99756" lon="4.49742">
        <ele>339.1</ele>
        <time>2014-09-16T12:30:47Z</time>
      </trkpt>
      <trkpt lat="45.99744" lon="4.49755">
        <ele>338.5</ele>
        <time>2014-09-16T12:30:49Z</time>
      </trkpt>
      <trkpt lat="45.99732" lon="4.49772">
        <ele>338</ele>
        <time>2014-09-16T12:30:51Z</time>
      </trkpt>
      <trkpt lat="45.99721" lon="4.49789">
        <ele>337.5</ele>
        <time>2014-09-16T12:30:53Z</time>
      </trkpt>
      <trkpt lat="45.9971" lon="4.49805">
        <ele>337.1</ele>
        <time>2014-09-16T12:30:55Z</time>
      </trkpt>
      <trkpt lat="45.997" lon="4.49821">
        <ele>336.6</ele>
        <time>2014-09-16T12:30:57Z</time>
      </trkpt>
      <trkpt lat="45.99688" lon="4.49835">
        <ele>334.8</ele>
        <time>2014-09-16T12:30:59Z</time>
      </trkpt>
      <trkpt lat="45.9968" lon="4.49843">
        <ele>334</ele>
        <time>2014-09-16T12:31:00Z</time>
      </trkpt>
      <trkpt lat="45.99666" lon="4.49852">
        <ele>333.2</ele>
        <time>2014-09-16T12:31:02Z</time>
      </trkpt>
      <trkpt lat="45.99653" lon="4.49862">
        <ele>332.4</ele>
        <time>2014-09-16T12:31:04Z</time>
      </trkpt>
      <trkpt lat="45.99641" lon="4.49874">
        <ele>333.2</ele>
        <time>2014-09-16T12:31:06Z</time>
      </trkpt>
      <trkpt lat="45.9963" lon="4.49883">
        <ele>332.8</ele>
        <time>2014-09-16T12:31:08Z</time>
      </trkpt>
      <trkpt lat="45.99622" lon="4.49892">
        <ele>332.5</ele>
        <time>2014-09-16T12:31:10Z</time>
      </trkpt>
      <trkpt lat="45.99615" lon="4.49898">
        <ele>332.1</ele>
        <time>2014-09-16T12:31:12Z</time>
      </trkpt>
      <trkpt lat="45.99605" lon="4.49906">
        <ele>331.7</ele>
        <time>2014-09-16T12:31:15Z</time>
      </trkpt>
      <trkpt lat="45.99595" lon="4.49912">
        <ele>331.4</ele>
        <time>2014-09-16T12:31:18Z</time>
      </trkpt>
      <trkpt lat="45.99586" lon="4.49917">
        <ele>331.7</ele>
        <time>2014-09-16T12:31:21Z</time>
      </trkpt>
      <trkpt lat="45.99578" lon="4.49922">
        <ele>333.5</ele>
        <time>2014-09-16T12:31:24Z</time>
      </trkpt>
      <trkpt lat="45.9957" lon="4.49926">
        <ele>334.2</ele>
        <time>2014-09-16T12:31:27Z</time>
      </trkpt>
      <trkpt lat="45.99562" lon="4.4993">
        <ele>334.9</ele>
        <time>2014-09-16T12:31:30Z</time>
      </trkpt>
      <trkpt lat="45.99552" lon="4.49935">
        <ele>335.6</ele>
        <time>2014-09-16T12:31:34Z</time>
      </trkpt>
      <trkpt lat="45.99542" lon="4.49942">
        <ele>335.1</ele>
        <time>2014-09-16T12:31:38Z</time>
      </trkpt>
      <trkpt lat="45.99535" lon="4.49947">
        <ele>335.8</ele>
        <time>2014-09-16T12:31:41Z</time>
      </trkpt>
      <trkpt lat="45.99526" lon="4.49951">
        <ele>336.5</ele>
        <time>2014-09-16T12:31:44Z</time>
      </trkpt>
      <trkpt lat="45.99518" lon="4.49956">
        <ele>337.3</ele>
        <time>2014-09-16T12:31:47Z</time>
      </trkpt>
      <trkpt lat="45.9951" lon="4.4996">
        <ele>338</ele>
        <time>2014-09-16T12:31:50Z</time>
      </trkpt>
      <trkpt lat="45.995" lon="4.49962">
        <ele>338.7</ele>
        <time>2014-09-16T12:31:54Z</time>
      </trkpt>
      <trkpt lat="45.9949" lon="4.4996">
        <ele>338.7</ele>
        <time>2014-09-16T12:31:58Z</time>
      </trkpt>
      <trkpt lat="45.99481" lon="4.49951">
        <ele>338.7</ele>
        <time>2014-09-16T12:32:02Z</time>
      </trkpt>
      <trkpt lat="45.99475" lon="4.49939">
        <ele>339.3</ele>
        <time>2014-09-16T12:32:06Z</time>
      </trkpt>
      <trkpt lat="45.99473" lon="4.49924">
        <ele>339.8</ele>
        <time>2014-09-16T12:32:10Z</time>
      </trkpt>
      <trkpt lat="45.99475" lon="4.49912">
        <ele>340.4</ele>
        <time>2014-09-16T12:32:13Z</time>
      </trkpt>
      <trkpt lat="45.99478" lon="4.49901">
        <ele>342.2</ele>
        <time>2014-09-16T12:32:16Z</time>
      </trkpt>
      <trkpt lat="45.99477" lon="4.49889">
        <ele>342.7</ele>
        <time>2014-09-16T12:32:20Z</time>
      </trkpt>
      <trkpt lat="45.9948" lon="4.49875">
        <ele>343.3</ele>
        <time>2014-09-16T12:32:26Z</time>
      </trkpt>
      <trkpt lat="45.99484" lon="4.49864">
        <ele>343.8</ele>
        <time>2014-09-16T12:32:29Z</time>
      </trkpt>
      <trkpt lat="45.99489" lon="4.49853">
        <ele>344.6</ele>
        <time>2014-09-16T12:32:32Z</time>
      </trkpt>
      <trkpt lat="45.99494" lon="4.49841">
        <ele>345.5</ele>
        <time>2014-09-16T12:32:35Z</time>
      </trkpt>
      <trkpt lat="45.99498" lon="4.4983">
        <ele>346.3</ele>
        <time>2014-09-16T12:32:38Z</time>
      </trkpt>
      <trkpt lat="45.99503" lon="4.49818">
        <ele>347.1</ele>
        <time>2014-09-16T12:32:41Z</time>
      </trkpt>
      <trkpt lat="45.99508" lon="4.49807">
        <ele>347.4</ele>
        <time>2014-09-16T12:32:44Z</time>
      </trkpt>
      <trkpt lat="45.99512" lon="4.49795">
        <ele>347.6</ele>
        <time>2014-09-16T12:32:47Z</time>
      </trkpt>
      <trkpt lat="45.99516" lon="4.49783">
        <ele>347.9</ele>
        <time>2014-09-16T12:32:51Z</time>
      </trkpt>
      <trkpt lat="45.9952" lon="4.49772">
        <ele>349</ele>
        <time>2014-09-16T12:32:53Z</time>
      </trkpt>
      <trkpt lat="45.99525" lon="4.49759">
        <ele>350.1</ele>
        <time>2014-09-16T12:32:56Z</time>
      </trkpt>
      <trkpt lat="45.99529" lon="4.49747">
        <ele>351.2</ele>
        <time>2014-09-16T12:32:59Z</time>
      </trkpt>
      <trkpt lat="45.99531" lon="4.49734">
        <ele>352.3</ele>
        <time>2014-09-16T12:33:02Z</time>
      </trkpt>
      <trkpt lat="45.99532" lon="4.49721">
        <ele>352.3</ele>
        <time>2014-09-16T12:33:05Z</time>
      </trkpt>
      <trkpt lat="45.99531" lon="4.49708">
        <ele>352.3</ele>
        <time>2014-09-16T12:33:08Z</time>
      </trkpt>
      <trkpt lat="45.99524" lon="4.49698">
        <ele>352.3</ele>
        <time>2014-09-16T12:33:11Z</time>
      </trkpt>
      <trkpt lat="45.99515" lon="4.49699">
        <ele>352.3</ele>
        <time>2014-09-16T12:33:14Z</time>
      </trkpt>
      <trkpt lat="45.99508" lon="4.49708">
        <ele>352.3</ele>
        <time>2014-09-16T12:33:17Z</time>
      </trkpt>
      <trkpt lat="45.99502" lon="4.4972">
        <ele>352.3</ele>
        <time>2014-09-16T12:33:20Z</time>
      </trkpt>
      <trkpt lat="45.99496" lon="4.49732">
        <ele>352.3</ele>
        <time>2014-09-16T12:33:23Z</time>
      </trkpt>
      <trkpt lat="45.9949" lon="4.49744">
        <ele>352.2</ele>
        <time>2014-09-16T12:33:26Z</time>
      </trkpt>
      <trkpt lat="45.99485" lon="4.49757">
        <ele>352.1</ele>
        <time>2014-09-16T12:33:29Z</time>
      </trkpt>
      <trkpt lat="45.99479" lon="4.49769">
        <ele>352</ele>
        <time>2014-09-16T12:33:32Z</time>
      </trkpt>
      <trkpt lat="45.99474" lon="4.49782">
        <ele>351.9</ele>
        <time>2014-09-16T12:33:35Z</time>
      </trkpt>
      <trkpt lat="45.99468" lon="4.49795">
        <ele>352.6</ele>
        <time>2014-09-16T12:33:38Z</time>
      </trkpt>
      <trkpt lat="45.99462" lon="4.49807">
        <ele>353.4</ele>
        <time>2014-09-16T12:33:41Z</time>
      </trkpt>
      <trkpt lat="45.99454" lon="4.49817">
        <ele>354.1</ele>
        <time>2014-09-16T12:33:44Z</time>
      </trkpt>
      <trkpt lat="45.99447" lon="4.4983">
        <ele>353.6</ele>
        <time>2014-09-16T12:33:47Z</time>
      </trkpt>
      <trkpt lat="45.99442" lon="4.49842">
        <ele>353.2</ele>
        <time>2014-09-16T12:33:50Z</time>
      </trkpt>
      <trkpt lat="45.99437" lon="4.49854">
        <ele>352.7</ele>
        <time>2014-09-16T12:33:53Z</time>
      </trkpt>
      <trkpt lat="45.9943" lon="4.49864">
        <ele>352.3</ele>
        <time>2014-09-16T12:33:56Z</time>
      </trkpt>
      <trkpt lat="45.99425" lon="4.49877">
        <ele>351.1</ele>
        <time>2014-09-16T12:33:59Z</time>
      </trkpt>
      <trkpt lat="45.9942" lon="4.4989">
        <ele>349.9</ele>
        <time>2014-09-16T12:34:02Z</time>
      </trkpt>
      <trkpt lat="45.99415" lon="4.499">
        <ele>348.5</ele>
        <time>2014-09-16T12:34:06Z</time>
      </trkpt>
      <trkpt lat="45.99414" lon="4.49913">
        <ele>347.2</ele>
        <time>2014-09-16T12:34:10Z</time>
      </trkpt>
      <trkpt lat="45.99413" lon="4.49926">
        <ele>345.8</ele>
        <time>2014-09-16T12:34:13Z</time>
      </trkpt>
      <trkpt lat="45.99413" lon="4.49938">
        <ele>344.5</ele>
        <time>2014-09-16T12:34:15Z</time>
      </trkpt>
      <trkpt lat="45.99413" lon="4.49951">
        <ele>343.1</ele>
        <time>2014-09-16T12:34:18Z</time>
      </trkpt>
      <trkpt lat="45.99415" lon="4.49965">
        <ele>342.3</ele>
        <time>2014-09-16T12:34:21Z</time>
      </trkpt>
      <trkpt lat="45.99419" lon="4.49978">
        <ele>341.5</ele>
        <time>2014-09-16T12:34:24Z</time>
      </trkpt>
      <trkpt lat="45.99421" lon="4.49991">
        <ele>340.6</ele>
        <time>2014-09-16T12:34:27Z</time>
      </trkpt>
      <trkpt lat="45.99412" lon="4.50029">
        <ele>339.8</ele>
        <time>2014-09-16T12:34:34Z</time>
      </trkpt>
      <trkpt lat="45.99408" lon="4.50042">
        <ele>339.6</ele>
        <time>2014-09-16T12:34:36Z</time>
      </trkpt>
      <trkpt lat="45.99404" lon="4.50057">
        <ele>339.5</ele>
        <time>2014-09-16T12:34:39Z</time>
      </trkpt>
      <trkpt lat="45.99399" lon="4.50072">
        <ele>339.5</ele>
        <time>2014-09-16T12:34:42Z</time>
      </trkpt>
      <trkpt lat="45.99394" lon="4.50088">
        <ele>339.5</ele>
        <time>2014-09-16T12:34:45Z</time>
      </trkpt>
      <trkpt lat="45.99387" lon="4.50102">
        <ele>338.9</ele>
        <time>2014-09-16T12:34:48Z</time>
      </trkpt>
      <trkpt lat="45.99379" lon="4.50115">
        <ele>338.9</ele>
        <time>2014-09-16T12:34:51Z</time>
      </trkpt>
      <trkpt lat="45.99371" lon="4.50127">
        <ele>338.9</ele>
        <time>2014-09-16T12:34:54Z</time>
      </trkpt>
      <trkpt lat="45.99361" lon="4.50134">
        <ele>339.5</ele>
        <time>2014-09-16T12:34:57Z</time>
      </trkpt>
      <trkpt lat="45.99351" lon="4.50137">
        <ele>340.2</ele>
        <time>2014-09-16T12:35:00Z</time>
      </trkpt>
      <trkpt lat="45.99341" lon="4.50139">
        <ele>340.8</ele>
        <time>2014-09-16T12:35:03Z</time>
      </trkpt>
      <trkpt lat="45.99332" lon="4.50138">
        <ele>341.1</ele>
        <time>2014-09-16T12:35:06Z</time>
      </trkpt>
      <trkpt lat="45.99323" lon="4.50134">
        <ele>340.7</ele>
        <time>2014-09-16T12:35:09Z</time>
      </trkpt>
      <trkpt lat="45.99314" lon="4.50131">
        <ele>340.4</ele>
        <time>2014-09-16T12:35:12Z</time>
      </trkpt>
      <trkpt lat="45.99305" lon="4.50126">
        <ele>340</ele>
        <time>2014-09-16T12:35:16Z</time>
      </trkpt>
      <trkpt lat="45.99296" lon="4.50134">
        <ele>339.6</ele>
        <time>2014-09-16T12:35:21Z</time>
      </trkpt>
      <trkpt lat="45.99288" lon="4.5015">
        <ele>339.8</ele>
        <time>2014-09-16T12:35:23Z</time>
      </trkpt>
      <trkpt lat="45.99276" lon="4.50156">
        <ele>338.8</ele>
        <time>2014-09-16T12:35:25Z</time>
      </trkpt>
      <trkpt lat="45.99262" lon="4.5016">
        <ele>337.8</ele>
        <time>2014-09-16T12:35:27Z</time>
      </trkpt>
      <trkpt lat="45.99247" lon="4.50159">
        <ele>336.8</ele>
        <time>2014-09-16T12:35:29Z</time>
      </trkpt>
      <trkpt lat="45.99239" lon="4.5016">
        <ele>335.8</ele>
        <time>2014-09-16T12:35:30Z</time>
      </trkpt>
      <trkpt lat="45.99223" lon="4.50156">
        <ele>334.8</ele>
        <time>2014-09-16T12:35:32Z</time>
      </trkpt>
      <trkpt lat="45.99209" lon="4.50151">
        <ele>334.2</ele>
        <time>2014-09-16T12:35:34Z</time>
      </trkpt>
      <trkpt lat="45.99195" lon="4.50147">
        <ele>333.5</ele>
        <time>2014-09-16T12:35:36Z</time>
      </trkpt>
      <trkpt lat="45.99176" lon="4.5016">
        <ele>332.9</ele>
        <time>2014-09-16T12:35:38Z</time>
      </trkpt>
      <trkpt lat="45.99167" lon="4.50167">
        <ele>331.8</ele>
        <time>2014-09-16T12:35:39Z</time>
      </trkpt>
      <trkpt lat="45.99158" lon="4.50174">
        <ele>330.7</ele>
        <time>2014-09-16T12:35:40Z</time>
      </trkpt>
      <trkpt lat="45.9915" lon="4.50181">
        <ele>329.6</ele>
        <time>2014-09-16T12:35:41Z</time>
      </trkpt>
      <trkpt lat="45.99141" lon="4.50188">
        <ele>329.2</ele>
        <time>2014-09-16T12:35:42Z</time>
      </trkpt>
      <trkpt lat="45.99132" lon="4.50194">
        <ele>327.9</ele>
        <time>2014-09-16T12:35:43Z</time>
      </trkpt>
      <trkpt lat="45.99122" lon="4.502">
        <ele>326.6</ele>
        <time>2014-09-16T12:35:44Z</time>
      </trkpt>
      <trkpt lat="45.99112" lon="4.50206">
        <ele>325.4</ele>
        <time>2014-09-16T12:35:45Z</time>
      </trkpt>
      <trkpt lat="45.99103" lon="4.50213">
        <ele>324.1</ele>
        <time>2014-09-16T12:35:46Z</time>
      </trkpt>
      <trkpt lat="45.99093" lon="4.50219">
        <ele>322.8</ele>
        <time>2014-09-16T12:35:47Z</time>
      </trkpt>
      <trkpt lat="45.99084" lon="4.50224">
        <ele>321.7</ele>
        <time>2014-09-16T12:35:48Z</time>
      </trkpt>
      <trkpt lat="45.99074" lon="4.50229">
        <ele>320.6</ele>
        <time>2014-09-16T12:35:49Z</time>
      </trkpt>
      <trkpt lat="45.99064" lon="4.50233">
        <ele>320</ele>
        <time>2014-09-16T12:35:50Z</time>
      </trkpt>
      <trkpt lat="45.99055" lon="4.50238">
        <ele>319.4</ele>
        <time>2014-09-16T12:35:51Z</time>
      </trkpt>
      <trkpt lat="45.99045" lon="4.50242">
        <ele>318.7</ele>
        <time>2014-09-16T12:35:52Z</time>
      </trkpt>
      <trkpt lat="45.99036" lon="4.50246">
        <ele>318.1</ele>
        <time>2014-09-16T12:35:53Z</time>
      </trkpt>
      <trkpt lat="45.99028" lon="4.50251">
        <ele>318.3</ele>
        <time>2014-09-16T12:35:54Z</time>
      </trkpt>
      <trkpt lat="45.99019" lon="4.50255">
        <ele>318.5</ele>
        <time>2014-09-16T12:35:55Z</time>
      </trkpt>
      <trkpt lat="45.99011" lon="4.50258">
        <ele>318.6</ele>
        <time>2014-09-16T12:35:56Z</time>
      </trkpt>
      <trkpt lat="45.98998" lon="4.50263">
        <ele>319.5</ele>
        <time>2014-09-16T12:35:58Z</time>
      </trkpt>
      <trkpt lat="45.98986" lon="4.50261">
        <ele>320.3</ele>
        <time>2014-09-16T12:36:00Z</time>
      </trkpt>
      <trkpt lat="45.98979" lon="4.50252">
        <ele>320.9</ele>
        <time>2014-09-16T12:36:02Z</time>
      </trkpt>
      <trkpt lat="45.98972" lon="4.50244">
        <ele>321.5</ele>
        <time>2014-09-16T12:36:04Z</time>
      </trkpt>
      <trkpt lat="45.98966" lon="4.50235">
        <ele>322.2</ele>
        <time>2014-09-16T12:36:06Z</time>
      </trkpt>
      <trkpt lat="45.98958" lon="4.50227">
        <ele>322.8</ele>
        <time>2014-09-16T12:36:09Z</time>
      </trkpt>
      <trkpt lat="45.98949" lon="4.50236">
        <ele>323.5</ele>
        <time>2014-09-16T12:36:13Z</time>
      </trkpt>
      <trkpt lat="45.9894" lon="4.50235">
        <ele>324.1</ele>
        <time>2014-09-16T12:36:16Z</time>
      </trkpt>
      <trkpt lat="45.98932" lon="4.50231">
        <ele>324.7</ele>
        <time>2014-09-16T12:36:22Z</time>
      </trkpt>
      <trkpt lat="45.98923" lon="4.50231">
        <ele>325</ele>
        <time>2014-09-16T12:36:28Z</time>
      </trkpt>
      <trkpt lat="45.98913" lon="4.50232">
        <ele>325.3</ele>
        <time>2014-09-16T12:36:33Z</time>
      </trkpt>
      <trkpt lat="45.98904" lon="4.50232">
        <ele>324.9</ele>
        <time>2014-09-16T12:36:38Z</time>
      </trkpt>
      <trkpt lat="45.98894" lon="4.50232">
        <ele>324.5</ele>
        <time>2014-09-16T12:36:42Z</time>
      </trkpt>
      <trkpt lat="45.98886" lon="4.50235">
        <ele>324.2</ele>
        <time>2014-09-16T12:36:46Z</time>
      </trkpt>
      <trkpt lat="45.98878" lon="4.50241">
        <ele>323.8</ele>
        <time>2014-09-16T12:36:50Z</time>
      </trkpt>
      <trkpt lat="45.98871" lon="4.50248">
        <ele>323.5</ele>
        <time>2014-09-16T12:36:54Z</time>
      </trkpt>
      <trkpt lat="45.98863" lon="4.50256">
        <ele>323.1</ele>
        <time>2014-09-16T12:36:58Z</time>
      </trkpt>
      <trkpt lat="45.98856" lon="4.50263">
        <ele>323.8</ele>
        <time>2014-09-16T12:37:02Z</time>
      </trkpt>
      <trkpt lat="45.98848" lon="4.50271">
        <ele>324.5</ele>
        <time>2014-09-16T12:37:06Z</time>
      </trkpt>
      <trkpt lat="45.98841" lon="4.50278">
        <ele>325.3</ele>
        <time>2014-09-16T12:37:10Z</time>
      </trkpt>
      <trkpt lat="45.98833" lon="4.50286">
        <ele>326.4</ele>
        <time>2014-09-16T12:37:14Z</time>
      </trkpt>
      <trkpt lat="45.98824" lon="4.50295">
        <ele>327.5</ele>
        <time>2014-09-16T12:37:18Z</time>
      </trkpt>
      <trkpt lat="45.98817" lon="4.50305">
        <ele>328.5</ele>
        <time>2014-09-16T12:37:22Z</time>
      </trkpt>
      <trkpt lat="45.9881" lon="4.50317">
        <ele>328</ele>
        <time>2014-09-16T12:37:26Z</time>
      </trkpt>
      <trkpt lat="45.98805" lon="4.5033">
        <ele>327.7</ele>
        <time>2014-09-16T12:37:30Z</time>
      </trkpt>
      <trkpt lat="45.98801" lon="4.50342">
        <ele>327.5</ele>
        <time>2014-09-16T12:37:33Z</time>
      </trkpt>
      <trkpt lat="45.98797" lon="4.50353">
        <ele>327.2</ele>
        <time>2014-09-16T12:37:36Z</time>
      </trkpt>
      <trkpt lat="45.98794" lon="4.50365">
        <ele>326.9</ele>
        <time>2014-09-16T12:37:39Z</time>
      </trkpt>
      <trkpt lat="45.98791" lon="4.50377">
        <ele>325.5</ele>
        <time>2014-09-16T12:37:42Z</time>
      </trkpt>
      <trkpt lat="45.98789" lon="4.50389">
        <ele>326.3</ele>
        <time>2014-09-16T12:37:45Z</time>
      </trkpt>
      <trkpt lat="45.98787" lon="4.50402">
        <ele>327</ele>
        <time>2014-09-16T12:37:48Z</time>
      </trkpt>
      <trkpt lat="45.98787" lon="4.50415">
        <ele>327.7</ele>
        <time>2014-09-16T12:37:51Z</time>
      </trkpt>
      <trkpt lat="45.98787" lon="4.50428">
        <ele>328.5</ele>
        <time>2014-09-16T12:37:54Z</time>
      </trkpt>
      <trkpt lat="45.98789" lon="4.50442">
        <ele>329.2</ele>
        <time>2014-09-16T12:37:57Z</time>
      </trkpt>
      <trkpt lat="45.98792" lon="4.50457">
        <ele>331.5</ele>
        <time>2014-09-16T12:38:00Z</time>
      </trkpt>
      <trkpt lat="45.98794" lon="4.50473">
        <ele>333.6</ele>
        <time>2014-09-16T12:38:03Z</time>
      </trkpt>
      <trkpt lat="45.98796" lon="4.50489">
        <ele>335.2</ele>
        <time>2014-09-16T12:38:06Z</time>
      </trkpt>
      <trkpt lat="45.98798" lon="4.50506">
        <ele>336.7</ele>
        <time>2014-09-16T12:38:09Z</time>
      </trkpt>
      <trkpt lat="45.98801" lon="4.50521">
        <ele>338.3</ele>
        <time>2014-09-16T12:38:12Z</time>
      </trkpt>
      <trkpt lat="45.98805" lon="4.50536">
        <ele>339.8</ele>
        <time>2014-09-16T12:38:15Z</time>
      </trkpt>
      <trkpt lat="45.98812" lon="4.50549">
        <ele>339.3</ele>
        <time>2014-09-16T12:38:18Z</time>
      </trkpt>
      <trkpt lat="45.98822" lon="4.50559">
        <ele>338.7</ele>
        <time>2014-09-16T12:38:21Z</time>
      </trkpt>
      <trkpt lat="45.98832" lon="4.50568">
        <ele>338.2</ele>
        <time>2014-09-16T12:38:24Z</time>
      </trkpt>
      <trkpt lat="45.98842" lon="4.50577">
        <ele>339</ele>
        <time>2014-09-16T12:38:27Z</time>
      </trkpt>
      <trkpt lat="45.98852" lon="4.50586">
        <ele>339.8</ele>
        <time>2014-09-16T12:38:30Z</time>
      </trkpt>
      <trkpt lat="45.98859" lon="4.50593">
        <ele>340.6</ele>
        <time>2014-09-16T12:38:32Z</time>
      </trkpt>
      <trkpt lat="45.98867" lon="4.50596">
        <ele>341.5</ele>
        <time>2014-09-16T12:38:34Z</time>
      </trkpt>
      <trkpt lat="45.98875" lon="4.50598">
        <ele>341.7</ele>
        <time>2014-09-16T12:38:36Z</time>
      </trkpt>
      <trkpt lat="45.98884" lon="4.50599">
        <ele>342</ele>
        <time>2014-09-16T12:38:38Z</time>
      </trkpt>
      <trkpt lat="45.98892" lon="4.50603">
        <ele>342.3</ele>
        <time>2014-09-16T12:38:40Z</time>
      </trkpt>
      <trkpt lat="45.98893" lon="4.50619">
        <ele>342.5</ele>
        <time>2014-09-16T12:38:43Z</time>
      </trkpt>
      <trkpt lat="45.98886" lon="4.50631">
        <ele>342.8</ele>
        <time>2014-09-16T12:38:46Z</time>
      </trkpt>
      <trkpt lat="45.98877" lon="4.50634">
        <ele>343.1</ele>
        <time>2014-09-16T12:38:48Z</time>
      </trkpt>
      <trkpt lat="45.9887" lon="4.5064">
        <ele>343.4</ele>
        <time>2014-09-16T12:38:50Z</time>
      </trkpt>
      <trkpt lat="45.98863" lon="4.50647">
        <ele>342.3</ele>
        <time>2014-09-16T12:38:52Z</time>
      </trkpt>
      <trkpt lat="45.98857" lon="4.50654">
        <ele>341.2</ele>
        <time>2014-09-16T12:38:54Z</time>
      </trkpt>
      <trkpt lat="45.9885" lon="4.50661">
        <ele>340.1</ele>
        <time>2014-09-16T12:38:56Z</time>
      </trkpt>
      <trkpt lat="45.98842" lon="4.50667">
        <ele>339</ele>
        <time>2014-09-16T12:38:58Z</time>
      </trkpt>
      <trkpt lat="45.98835" lon="4.50672">
        <ele>339</ele>
        <time>2014-09-16T12:39:00Z</time>
      </trkpt>
      <trkpt lat="45.98827" lon="4.50676">
        <ele>338.6</ele>
        <time>2014-09-16T12:39:02Z</time>
      </trkpt>
      <trkpt lat="45.98817" lon="4.50684">
        <ele>338.7</ele>
        <time>2014-09-16T12:39:05Z</time>
      </trkpt>
      <trkpt lat="45.98808" lon="4.5069">
        <ele>338.8</ele>
        <time>2014-09-16T12:39:08Z</time>
      </trkpt>
      <trkpt lat="45.988" lon="4.50697">
        <ele>338.9</ele>
        <time>2014-09-16T12:39:11Z</time>
      </trkpt>
      <trkpt lat="45.98792" lon="4.50704">
        <ele>339</ele>
        <time>2014-09-16T12:39:14Z</time>
      </trkpt>
      <trkpt lat="45.98784" lon="4.5071">
        <ele>339.1</ele>
        <time>2014-09-16T12:39:17Z</time>
      </trkpt>
      <trkpt lat="45.98775" lon="4.50715">
        <ele>339.2</ele>
        <time>2014-09-16T12:39:20Z</time>
      </trkpt>
      <trkpt lat="45.98766" lon="4.50719">
        <ele>338.3</ele>
        <time>2014-09-16T12:39:23Z</time>
      </trkpt>
      <trkpt lat="45.98754" lon="4.50723">
        <ele>337.4</ele>
        <time>2014-09-16T12:39:26Z</time>
      </trkpt>
      <trkpt lat="45.98746" lon="4.50725">
        <ele>337.2</ele>
        <time>2014-09-16T12:39:28Z</time>
      </trkpt>
      <trkpt lat="45.98722" lon="4.5075">
        <ele>337</ele>
        <time>2014-09-16T12:39:34Z</time>
      </trkpt>
      <trkpt lat="45.98716" lon="4.50761">
        <ele>337.2</ele>
        <time>2014-09-16T12:39:36Z</time>
      </trkpt>
      <trkpt lat="45.9871" lon="4.50774">
        <ele>336.9</ele>
        <time>2014-09-16T12:39:38Z</time>
      </trkpt>
      <trkpt lat="45.987" lon="4.50785">
        <ele>336.6</ele>
        <time>2014-09-16T12:39:40Z</time>
      </trkpt>
      <trkpt lat="45.98691" lon="4.50797">
        <ele>336.4</ele>
        <time>2014-09-16T12:39:42Z</time>
      </trkpt>
      <trkpt lat="45.98682" lon="4.50808">
        <ele>336.1</ele>
        <time>2014-09-16T12:39:44Z</time>
      </trkpt>
      <trkpt lat="45.98674" lon="4.50818">
        <ele>335.8</ele>
        <time>2014-09-16T12:39:46Z</time>
      </trkpt>
      <trkpt lat="45.98664" lon="4.50828">
        <ele>336.7</ele>
        <time>2014-09-16T12:39:48Z</time>
      </trkpt>
      <trkpt lat="45.98656" lon="4.50839">
        <ele>338.6</ele>
        <time>2014-09-16T12:39:50Z</time>
      </trkpt>
      <trkpt lat="45.9865" lon="4.50852">
        <ele>338.4</ele>
        <time>2014-09-16T12:39:52Z</time>
      </trkpt>
      <trkpt lat="45.98645" lon="4.50864">
        <ele>337.4</ele>
        <time>2014-09-16T12:39:54Z</time>
      </trkpt>
      <trkpt lat="45.9864" lon="4.50877">
        <ele>336.4</ele>
        <time>2014-09-16T12:39:56Z</time>
      </trkpt>
      <trkpt lat="45.98636" lon="4.50891">
        <ele>335.4</ele>
        <time>2014-09-16T12:39:58Z</time>
      </trkpt>
      <trkpt lat="45.98632" lon="4.50903">
        <ele>334.4</ele>
        <time>2014-09-16T12:40:00Z</time>
      </trkpt>
      <trkpt lat="45.98626" lon="4.50914">
        <ele>335</ele>
        <time>2014-09-16T12:40:02Z</time>
      </trkpt>
      <trkpt lat="45.98621" lon="4.50925">
        <ele>335.6</ele>
        <time>2014-09-16T12:40:04Z</time>
      </trkpt>
      <trkpt lat="45.98613" lon="4.50934">
        <ele>336.3</ele>
        <time>2014-09-16T12:40:06Z</time>
      </trkpt>
      <trkpt lat="45.98607" lon="4.50942">
        <ele>336.9</ele>
        <time>2014-09-16T12:40:08Z</time>
      </trkpt>
      <trkpt lat="45.986" lon="4.50954">
        <ele>336.4</ele>
        <time>2014-09-16T12:40:11Z</time>
      </trkpt>
      <trkpt lat="45.98591" lon="4.50966">
        <ele>335.8</ele>
        <time>2014-09-16T12:40:14Z</time>
      </trkpt>
      <trkpt lat="45.98583" lon="4.50977">
        <ele>335.7</ele>
        <time>2014-09-16T12:40:17Z</time>
      </trkpt>
      <trkpt lat="45.98576" lon="4.50989">
        <ele>335.6</ele>
        <time>2014-09-16T12:40:20Z</time>
      </trkpt>
      <trkpt lat="45.98568" lon="4.51">
        <ele>337.8</ele>
        <time>2014-09-16T12:40:23Z</time>
      </trkpt>
      <trkpt lat="45.9856" lon="4.51011">
        <ele>340</ele>
        <time>2014-09-16T12:40:26Z</time>
      </trkpt>
      <trkpt lat="45.98553" lon="4.51022">
        <ele>342.2</ele>
        <time>2014-09-16T12:40:29Z</time>
      </trkpt>
      <trkpt lat="45.98544" lon="4.51031">
        <ele>342.7</ele>
        <time>2014-09-16T12:40:32Z</time>
      </trkpt>
      <trkpt lat="45.98536" lon="4.5104">
        <ele>343.3</ele>
        <time>2014-09-16T12:40:35Z</time>
      </trkpt>
      <trkpt lat="45.98527" lon="4.51049">
        <ele>343.8</ele>
        <time>2014-09-16T12:40:38Z</time>
      </trkpt>
      <trkpt lat="45.98519" lon="4.51057">
        <ele>344.4</ele>
        <time>2014-09-16T12:40:41Z</time>
      </trkpt>
      <trkpt lat="45.98511" lon="4.51065">
        <ele>344.9</ele>
        <time>2014-09-16T12:40:44Z</time>
      </trkpt>
      <trkpt lat="45.98503" lon="4.51071">
        <ele>345.4</ele>
        <time>2014-09-16T12:40:47Z</time>
      </trkpt>
      <trkpt lat="45.98494" lon="4.51076">
        <ele>347.5</ele>
        <time>2014-09-16T12:40:50Z</time>
      </trkpt>
      <trkpt lat="45.98485" lon="4.51082">
        <ele>349.7</ele>
        <time>2014-09-16T12:40:53Z</time>
      </trkpt>
      <trkpt lat="45.98476" lon="4.51087">
        <ele>349.6</ele>
        <time>2014-09-16T12:40:56Z</time>
      </trkpt>
      <trkpt lat="45.98466" lon="4.51091">
        <ele>349.5</ele>
        <time>2014-09-16T12:40:59Z</time>
      </trkpt>
      <trkpt lat="45.98456" lon="4.51094">
        <ele>349.5</ele>
        <time>2014-09-16T12:41:02Z</time>
      </trkpt>
      <trkpt lat="45.98446" lon="4.51097">
        <ele>349.4</ele>
        <time>2014-09-16T12:41:05Z</time>
      </trkpt>
      <trkpt lat="45.98437" lon="4.51099">
        <ele>349.3</ele>
        <time>2014-09-16T12:41:08Z</time>
      </trkpt>
      <trkpt lat="45.98427" lon="4.51103">
        <ele>349.2</ele>
        <time>2014-09-16T12:41:11Z</time>
      </trkpt>
      <trkpt lat="45.98418" lon="4.51108">
        <ele>349.1</ele>
        <time>2014-09-16T12:41:14Z</time>
      </trkpt>
      <trkpt lat="45.98409" lon="4.5111">
        <ele>349</ele>
        <time>2014-09-16T12:41:17Z</time>
      </trkpt>
      <trkpt lat="45.98405" lon="4.51112">
        <ele>349</ele>
        <time>2014-09-16T12:41:43Z</time>
      </trkpt>
      <trkpt lat="45.98401" lon="4.51113">
        <ele>349</ele>
        <time>2014-09-16T12:42:21Z</time>
      </trkpt>
      <trkpt lat="45.98401" lon="4.51113">
        <ele>349</ele>
        <time>2014-09-16T12:42:21Z</time>
      </trkpt>
      <trkpt lat="45.984" lon="4.51113">
        <ele>349</ele>
        <time>2014-09-16T12:42:32Z</time>
      </trkpt>
      <trkpt lat="45.98393" lon="4.51109">
        <ele>347</ele>
        <time>2014-09-16T12:58:05Z</time>
      </trkpt>
      <trkpt lat="45.98393" lon="4.51109">
        <ele>346.7</ele>
        <time>2014-09-16T12:58:05Z</time>
      </trkpt>
      <trkpt lat="45.98384" lon="4.51106">
        <ele>346</ele>
        <time>2014-09-16T12:58:10Z</time>
      </trkpt>
      <trkpt lat="45.98377" lon="4.51093">
        <ele>345.4</ele>
        <time>2014-09-16T12:58:12Z</time>
      </trkpt>
      <trkpt lat="45.98375" lon="4.5108">
        <ele>345</ele>
        <time>2014-09-16T12:58:13Z</time>
      </trkpt>
      <trkpt lat="45.98371" lon="4.51067">
        <ele>344.6</ele>
        <time>2014-09-16T12:58:15Z</time>
      </trkpt>
      <trkpt lat="45.98364" lon="4.51049">
        <ele>343.9</ele>
        <time>2014-09-16T12:58:17Z</time>
      </trkpt>
      <trkpt lat="45.98358" lon="4.51036">
        <ele>343.2</ele>
        <time>2014-09-16T12:58:19Z</time>
      </trkpt>
      <trkpt lat="45.98352" lon="4.51025">
        <ele>342.5</ele>
        <time>2014-09-16T12:58:21Z</time>
      </trkpt>
      <trkpt lat="45.98346" lon="4.51016">
        <ele>342.1</ele>
        <time>2014-09-16T12:58:23Z</time>
      </trkpt>
      <trkpt lat="45.9834" lon="4.51007">
        <ele>341.7</ele>
        <time>2014-09-16T12:58:25Z</time>
      </trkpt>
      <trkpt lat="45.98334" lon="4.50999">
        <ele>339.5</ele>
        <time>2014-09-16T12:58:27Z</time>
      </trkpt>
      <trkpt lat="45.98328" lon="4.50988">
        <ele>337.4</ele>
        <time>2014-09-16T12:58:29Z</time>
      </trkpt>
      <trkpt lat="45.98319" lon="4.50979">
        <ele>335.5</ele>
        <time>2014-09-16T12:58:31Z</time>
      </trkpt>
      <trkpt lat="45.98308" lon="4.5097">
        <ele>333.7</ele>
        <time>2014-09-16T12:58:33Z</time>
      </trkpt>
      <trkpt lat="45.98294" lon="4.50963">
        <ele>331.9</ele>
        <time>2014-09-16T12:58:35Z</time>
      </trkpt>
      <trkpt lat="45.9828" lon="4.50958">
        <ele>330.1</ele>
        <time>2014-09-16T12:58:37Z</time>
      </trkpt>
      <trkpt lat="45.98266" lon="4.50956">
        <ele>328.3</ele>
        <time>2014-09-16T12:58:39Z</time>
      </trkpt>
      <trkpt lat="45.98251" lon="4.50953">
        <ele>326.5</ele>
        <time>2014-09-16T12:58:41Z</time>
      </trkpt>
      <trkpt lat="45.98237" lon="4.50953">
        <ele>324.6</ele>
        <time>2014-09-16T12:58:43Z</time>
      </trkpt>
      <trkpt lat="45.98227" lon="4.50955">
        <ele>322.8</ele>
        <time>2014-09-16T12:58:45Z</time>
      </trkpt>
      <trkpt lat="45.98218" lon="4.50956">
        <ele>321</ele>
        <time>2014-09-16T12:58:48Z</time>
      </trkpt>
      <trkpt lat="45.98227" lon="4.50949">
        <ele>321</ele>
        <time>2014-09-16T12:58:56Z</time>
      </trkpt>
      <trkpt lat="45.98235" lon="4.50946">
        <ele>321</ele>
        <time>2014-09-16T12:58:59Z</time>
      </trkpt>
      <trkpt lat="45.98243" lon="4.50945">
        <ele>321</ele>
        <time>2014-09-16T12:59:03Z</time>
      </trkpt>
      <trkpt lat="45.98237" lon="4.50944">
        <ele>321</ele>
        <time>2014-09-16T12:59:19Z</time>
      </trkpt>
    </trkseg>
  </trk>
</gpx>